Observation data for Amarillo 9 North Northeast on 11/11/2019      Previous  Date       Current Mesonet Observations  Soil Data  Daily Summary Page  Observations in Plain Language
KAM2 110600Z 00007KT 05/M01 A2992 RMK A01 T00451006  RH  070%=      5-min Rain = 0
KAM2 110601Z 00007KT 04/M01 A2991 RMK A01 T00441005  RH  070%=      5-min Rain = 0
KAM2 110602Z 00007KT 04/M01 A2991 RMK A01 T00441005  RH  070%=      5-min Rain = 0
KAM2 110603Z 00007KT 04/M00 A2991 RMK A01 T00441004  RH  071%=      5-min Rain = 0
KAM2 110604Z 00008KT 04/M00 A2992 RMK A01 T00441003  RH  071%=      5-min Rain = 0
KAM2 110605Z 01007KT 05/M00 A2991 RMK A01 T00451001  RH  072%=      5-min Rain = 0
KAM2 110606Z 01007KT 05/00 A2991 RMK A01 T004600-0  RH  072%=      5-min Rain = 0
KAM2 110607Z 00009KT 05/00 A2992 RMK A01 T00460001  RH  073%=      5-min Rain = 0
KAM2 110608Z 00009KT 05/00 A2992 RMK A01 T00470003  RH  073%=      5-min Rain = 0
KAM2 110609Z 00010KT 05/01 A2992 RMK A01 T00490005  RH  073%=      5-min Rain = 0
KAM2 110610Z 00010KT 05/01 A2992 RMK A01 T00520006  RH  072%=      5-min Rain = 0
KAM2 110611Z 01010KT 05/01 A2992 RMK A01 T00540006  RH  071%=      5-min Rain = 0
KAM2 110612Z 01011KT 06/01 A2992 RMK A01 T00550005  RH  070%=      5-min Rain = 0
KAM2 110613Z 01009KT 06/01 A2992 RMK A01 T00560005  RH  070%=      5-min Rain = 0
KAM2 110614Z 01011KT 06/01 A2992 RMK A01 T00570005  RH  069%=      5-min Rain = 0
KAM2 110615Z 01010KT 06/00 A2992 RMK A01 T00580004  RH  069%=      5-min Rain = 0
KAM2 110616Z 01012KT 06/00 A2992 RMK A01 T00590004  RH  068%=      5-min Rain = 0
KAM2 110617Z 01011KT 06/00 A2992 RMK A01 T00590004  RH  068%=      5-min Rain = 0
KAM2 110618Z 01011KT 06/00 A2993 RMK A01 T00590004  RH  068%=      5-min Rain = 0
KAM2 110619Z 00013KT 06/00 A2993 RMK A01 T00590003  RH  068%=      5-min Rain = 0
KAM2 110620Z 00013KT 06/00 A2993 RMK A01 T00590003  RH  067%=      5-min Rain = 0
KAM2 110621Z 00012KT 06/00 A2993 RMK A01 T00590003  RH  067%=      5-min Rain = 0
KAM2 110622Z 00012KT 06/00 A2993 RMK A01 T00590003  RH  068%=      5-min Rain = 0
KAM2 110623Z 00012KT 06/00 A2993 RMK A01 T00580003  RH  068%=      5-min Rain = 0
KAM2 110624Z 01012G17KT 06/00 A2993 RMK A01 T00580004  RH  068%=      5-min Rain = 0
KAM2 110625Z 00013KT 06/00 A2993 RMK A01 T00580003  RH  068%=      5-min Rain = 0
KAM2 110626Z 01015KT 06/00 A2993 RMK A01 T00580003  RH  068%=      5-min Rain = 0
KAM2 110627Z 01014KT 06/00 A2993 RMK A01 T00590004  RH  067%=      5-min Rain = 0
KAM2 110628Z 01014KT 06/00 A2993 RMK A01 T00600003  RH  067%=      5-min Rain = 0
KAM2 110629Z 01013KT 06/00 A2993 RMK A01 T00600003  RH  067%=      5-min Rain = 0
KAM2 110630Z 01013KT 06/00 A2993 RMK A01 T00600003  RH  067%=      5-min Rain = 0
KAM2 110631Z 01016KT 06/00 A2993 RMK A01 T00590004  RH  067%=      5-min Rain = 0
KAM2 110632Z 01013KT 06/00 A2993 RMK A01 T00600004  RH  067%=      5-min Rain = 0
KAM2 110633Z 01012KT 06/00 A2993 RMK A01 T00590004  RH  068%=      5-min Rain = 0
KAM2 110634Z 01014KT 06/00 A2993 RMK A01 T00580004  RH  068%=      5-min Rain = 0
KAM2 110635Z 01013KT 06/00 A2993 RMK A01 T00580004  RH  068%=      5-min Rain = 0
KAM2 110636Z 01013KT 06/00 A2993 RMK A01 T00580004  RH  068%=      5-min Rain = 0
KAM2 110637Z 02013KT 06/00 A2993 RMK A01 T00580004  RH  068%=      5-min Rain = 0
KAM2 110638Z 01012KT 06/00 A2993 RMK A01 T00580004  RH  068%=      5-min Rain = 0
KAM2 110639Z 01012KT 06/00 A2993 RMK A01 T00580004  RH  068%=      5-min Rain = 0
KAM2 110640Z 01012KT 06/01 A2993 RMK A01 T00580005  RH  069%=      5-min Rain = 0
KAM2 110641Z 01012KT 06/01 A2993 RMK A01 T00580005  RH  069%=      5-min Rain = 0
KAM2 110642Z 01012KT 06/01 A2993 RMK A01 T00580005  RH  069%=      5-min Rain = 0
KAM2 110643Z 02014KT 06/01 A2994 RMK A01 T00580005  RH  068%=      5-min Rain = 0
KAM2 110644Z 02015KT 06/01 A2994 RMK A01 T00590005  RH  068%=      5-min Rain = 0
KAM2 110645Z 01012KT 06/01 A2994 RMK A01 T00600006  RH  068%=      5-min Rain = 0
KAM2 110646Z 01012KT 06/01 A2994 RMK A01 T00600006  RH  068%=      5-min Rain = 0
KAM2 110647Z 01014KT 06/01 A2994 RMK A01 T00600006  RH  068%=      5-min Rain = 0
KAM2 110648Z 02015KT 06/01 A2994 RMK A01 T00600006  RH  068%=      5-min Rain = 0
KAM2 110649Z 01015KT 06/01 A2994 RMK A01 T00600006  RH  068%=      5-min Rain = 0
KAM2 110650Z 02012KT 06/01 A2994 RMK A01 T00600006  RH  068%=      5-min Rain = 0
KAM2 110651Z 01011KT 06/01 A2994 RMK A01 T00600006  RH  068%=      5-min Rain = 0
KAM2 110652Z 02012KT 06/01 A2994 RMK A01 T00590006  RH  069%=      5-min Rain = 0
KAM2 110653Z 02014KT 06/01 A2994 RMK A01 T00580006  RH  069%=      5-min Rain = 0
KAM2 110654Z 02013KT 06/01 A2994 RMK A01 T00580006  RH  069%=      5-min Rain = 0
KAM2 110655Z 01014KT 06/01 A2994 RMK A01 T00580006  RH  069%=      5-min Rain = 0
KAM2 110656Z 02014KT 06/01 A2994 RMK A01 T00580007  RH  069%=      5-min Rain = 0
KAM2 110657Z 01014G19KT 06/01 A2994 RMK A01 T00580006  RH  070%=      5-min Rain = 0
KAM2 110658Z 01014KT 06/01 A2994 RMK A01 T00580007  RH  070%=      5-min Rain = 0
KAM2 110659Z 02018KT 06/01 A2994 RMK A01 T00580007  RH  070%=      5-min Rain = 0
KAM2 110700Z 01015KT 06/01 A2994 RMK A01 T00580007  RH  070%=      5-min Rain = 0
KAM2 110701Z 02016KT 06/01 A2994 RMK A01 T00580007  RH  070%=      5-min Rain = 0
KAM2 110702Z 02015KT 06/01 A2994 RMK A01 T00580008  RH  070%=      5-min Rain = 0
KAM2 110703Z 01014KT 06/01 A2994 RMK A01 T00580008  RH  070%=      5-min Rain = 0
KAM2 110704Z 02014KT 06/01 A2994 RMK A01 T00570007  RH  070%=      5-min Rain = 0
KAM2 110705Z 01014G19KT 06/01 A2995 RMK A01 T00570008  RH  071%=      5-min Rain = 0
KAM2 110706Z 02017KT 06/01 A2995 RMK A01 T00560008  RH  071%=      5-min Rain = 0
KAM2 110707Z 02016KT 06/01 A2995 RMK A01 T00560008  RH  071%=      5-min Rain = 0
KAM2 110708Z 02017KT 06/01 A2995 RMK A01 T00560007  RH  071%=      5-min Rain = 0
KAM2 110709Z 01018KT 06/01 A2995 RMK A01 T00560008  RH  071%=      5-min Rain = 0
KAM2 110710Z 01018KT 06/01 A2995 RMK A01 T00570008  RH  071%=      5-min Rain = 0
KAM2 110711Z 02019KT 06/01 A2995 RMK A01 T00570008  RH  071%=      5-min Rain = 0
KAM2 110712Z 01017KT 06/01 A2995 RMK A01 T00570008  RH  071%=      5-min Rain = 0
KAM2 110713Z 01018KT 06/01 A2995 RMK A01 T00570008  RH  071%=      5-min Rain = 0
KAM2 110714Z 01015G20KT 06/01 A2995 RMK A01 T00570009  RH  071%=      5-min Rain = 0
KAM2 110715Z 01018KT 06/01 A2995 RMK A01 T00560008  RH  071%=      5-min Rain = 0
KAM2 110716Z 01018G23KT 06/01 A2995 RMK A01 T00550008  RH  072%=      5-min Rain = 0
KAM2 110717Z 01017KT 06/01 A2995 RMK A01 T00560009  RH  072%=      5-min Rain = 0
KAM2 110718Z 02018G23KT 06/01 A2995 RMK A01 T00560009  RH  072%=      5-min Rain = 0
KAM2 110719Z 02019G24KT 06/01 A2995 RMK A01 T00560008  RH  072%=      5-min Rain = 0
KAM2 110720Z 02018KT 06/01 A2996 RMK A01 T00560009  RH  072%=      5-min Rain = 0
KAM2 110721Z 02017KT 06/01 A2996 RMK A01 T00560009  RH  072%=      5-min Rain = 0
KAM2 110722Z 02018KT 06/01 A2996 RMK A01 T00550009  RH  072%=      5-min Rain = 0
KAM2 110723Z 02015KT 06/01 A2996 RMK A01 T00550009  RH  072%=      5-min Rain = 0
KAM2 110724Z 02018KT 05/01 A2996 RMK A01 T00540008  RH  072%=      5-min Rain = 0
KAM2 110725Z 02019KT 05/01 A2996 RMK A01 T00540009  RH  073%=      5-min Rain = 0
KAM2 110726Z 02017KT 05/01 A2996 RMK A01 T00540009  RH  073%=      5-min Rain = 0
KAM2 110727Z 02018KT 05/01 A2996 RMK A01 T00540009  RH  073%=      5-min Rain = 0
KAM2 110728Z 02018KT 05/01 A2996 RMK A01 T00530010  RH  073%=      5-min Rain = 0
KAM2 110729Z 02018KT 05/01 A2996 RMK A01 T00530010  RH  073%=      5-min Rain = 0
KAM2 110730Z 01017G23KT 05/01 A2996 RMK A01 T00530010  RH  073%=      5-min Rain = 0
KAM2 110731Z 02017KT 05/01 A2996 RMK A01 T00530010  RH  073%=      5-min Rain = 0
KAM2 110732Z 02018KT 05/01 A2996 RMK A01 T00530009  RH  073%=      5-min Rain = 0
KAM2 110733Z 02019KT 05/01 A2996 RMK A01 T00530010  RH  074%=      5-min Rain = 0
KAM2 110734Z 02016KT 05/01 A2996 RMK A01 T00530010  RH  074%=      5-min Rain = 0
KAM2 110735Z 02015KT 05/01 A2996 RMK A01 T00530010  RH  074%=      5-min Rain = 0
KAM2 110736Z 02018KT 05/01 A2996 RMK A01 T00520009  RH  074%=      5-min Rain = 0
KAM2 110737Z 01016KT 05/01 A2996 RMK A01 T00520010  RH  074%=      5-min Rain = 0
KAM2 110738Z 01017KT 05/01 A2996 RMK A01 T00520010  RH  074%=      5-min Rain = 0
KAM2 110739Z 01018KT 05/01 A2997 RMK A01 T00520010  RH  074%=      5-min Rain = 0
KAM2 110740Z 01015KT 05/01 A2997 RMK A01 T00510010  RH  074%=      5-min Rain = 0
KAM2 110741Z 01017KT 05/01 A2997 RMK A01 T00510010  RH  074%=      5-min Rain = 0
KAM2 110742Z 01017KT 05/01 A2997 RMK A01 T00510010  RH  075%=      5-min Rain = 0
KAM2 110743Z 01017KT 05/01 A2997 RMK A01 T00500009  RH  075%=      5-min Rain = 0
KAM2 110744Z 02018KT 05/01 A2997 RMK A01 T00500010  RH  075%=      5-min Rain = 0
KAM2 110745Z 01018KT 05/01 A2997 RMK A01 T00500010  RH  075%=      5-min Rain = 0
KAM2 110746Z 01017KT 05/01 A2997 RMK A01 T00500010  RH  075%=      5-min Rain = 0
KAM2 110747Z 01020KT 05/01 A2997 RMK A01 T00500009  RH  075%=      5-min Rain = 0
KAM2 110748Z 01020KT 05/01 A2997 RMK A01 T00490009  RH  075%=      5-min Rain = 0
KAM2 110749Z 01017G22KT 05/01 A2997 RMK A01 T00490009  RH  075%=      5-min Rain = 0
KAM2 110750Z 01019KT 05/01 A2997 RMK A01 T00490009  RH  075%=      5-min Rain = 0
KAM2 110751Z 01019KT 05/01 A2997 RMK A01 T00490009  RH  075%=      5-min Rain = 0
KAM2 110752Z 01020KT 05/01 A2997 RMK A01 T00490010  RH  075%=      5-min Rain = 0
KAM2 110753Z 01019KT 05/01 A2997 RMK A01 T00490009  RH  076%=      5-min Rain = 0
KAM2 110754Z 01021KT 05/01 A2997 RMK A01 T00490009  RH  076%=      5-min Rain = 0
KAM2 110755Z 01019KT 05/01 A2997 RMK A01 T00490009  RH  076%=      5-min Rain = 0
KAM2 110756Z 01018KT 05/01 A2997 RMK A01 T00490010  RH  076%=      5-min Rain = 0
KAM2 110757Z 02017KT 05/01 A2997 RMK A01 T00490009  RH  076%=      5-min Rain = 0
KAM2 110758Z 02018KT 05/01 A2997 RMK A01 T00480010  RH  076%=      5-min Rain = 0
KAM2 110759Z 01019KT 05/01 A2998 RMK A01 T00480009  RH  076%=      5-min Rain = 0
KAM2 110800Z 01017KT 05/01 A2998 RMK A01 T00480010  RH  076%=      5-min Rain = 0
KAM2 110801Z 01020KT 05/01 A2998 RMK A01 T00480010  RH  076%=      5-min Rain = 0
KAM2 110802Z 02019KT 05/01 A2998 RMK A01 T00480010  RH  076%=      5-min Rain = 0
KAM2 110803Z 01019KT 05/01 A2998 RMK A01 T00480010  RH  076%=      5-min Rain = 0
KAM2 110804Z 01017KT 05/01 A2998 RMK A01 T00480010  RH  076%=      5-min Rain = 0
KAM2 110805Z 01017KT 05/01 A2998 RMK A01 T00480010  RH  076%=      5-min Rain = 0
KAM2 110806Z 01018G23KT 05/01 A2999 RMK A01 T00470010  RH  077%=      5-min Rain = 0
KAM2 110807Z 01015KT 05/01 A2999 RMK A01 T00470010  RH  077%=      5-min Rain = 0
KAM2 110808Z 01016KT 05/01 A2999 RMK A01 T00470010  RH  077%=      5-min Rain = 0
KAM2 110809Z 01015KT 05/01 A2999 RMK A01 T00460009  RH  077%=      5-min Rain = 0
KAM2 110810Z 01014KT 05/01 A2999 RMK A01 T00460010  RH  077%=      5-min Rain = 0
KAM2 110811Z 00013KT 05/01 A2999 RMK A01 T00450010  RH  078%=      5-min Rain = 0
KAM2 110812Z 01015KT 04/01 A2999 RMK A01 T00440009  RH  078%=      5-min Rain = 0
KAM2 110813Z 36014KT 04/01 A30 RMK A01 T00440010  RH  078%=      5-min Rain = 0
KAM2 110814Z 00015KT 04/01 A30 RMK A01 T00440010  RH  078%=      5-min Rain = 0
KAM2 110815Z 00016KT 04/01 A30 RMK A01 T00440010  RH  079%=      5-min Rain = 0
KAM2 110816Z 00016KT 04/01 A30 RMK A01 T00440010  RH  079%=      5-min Rain = 0
KAM2 110817Z 36016KT 05/01 A30 RMK A01 T00450011  RH  078%=      5-min Rain = 0
KAM2 110818Z 00015KT 05/01 A30 RMK A01 T00450010  RH  078%=      5-min Rain = 0
KAM2 110819Z 01017KT 05/01 A30 RMK A01 T00450011  RH  078%=      5-min Rain = 0
KAM2 110820Z 01017KT 05/01 A30 RMK A01 T00460011  RH  078%=      5-min Rain = 0
KAM2 110821Z 00016KT 05/01 A30 RMK A01 T00470011  RH  078%=      5-min Rain = 0
KAM2 110822Z 01012KT 05/01 A30 RMK A01 T00470011  RH  078%=      5-min Rain = 0
KAM2 110823Z 01013KT 05/01 A3001 RMK A01 T00470012  RH  078%=      5-min Rain = 0
KAM2 110824Z 01013KT 05/01 A3001 RMK A01 T00470011  RH  078%=      5-min Rain = 0
KAM2 110825Z 01012KT 05/01 A3001 RMK A01 T00470012  RH  078%=      5-min Rain = 0
KAM2 110826Z 01015KT 05/01 A3001 RMK A01 T00470012  RH  078%=      5-min Rain = 0
KAM2 110827Z 01012KT 05/01 A3001 RMK A01 T00480012  RH  078%=      5-min Rain = 0
KAM2 110828Z 01014KT 05/01 A3001 RMK A01 T00480012  RH  078%=      5-min Rain = 0
KAM2 110829Z 01015KT 05/01 A3001 RMK A01 T00480012  RH  077%=      5-min Rain = 0
KAM2 110830Z 36017G22KT 05/01 A3002 RMK A01 T00480012  RH  077%=      5-min Rain = 0
KAM2 110831Z 01016KT 05/01 A3002 RMK A01 T00490012  RH  077%=      5-min Rain = 0
KAM2 110832Z 01015KT 05/01 A3002 RMK A01 T00490012  RH  077%=      5-min Rain = 0
KAM2 110833Z 01016KT 05/01 A3002 RMK A01 T00490012  RH  077%=      5-min Rain = 0
KAM2 110834Z 00016G22KT 05/01 A3002 RMK A01 T00490012  RH  077%=      5-min Rain = 0
KAM2 110835Z 00019KT 05/01 A3002 RMK A01 T00490012  RH  077%=      5-min Rain = 0
KAM2 110836Z 01018KT 05/01 A3002 RMK A01 T00490012  RH  077%=      5-min Rain = 0
KAM2 110837Z 01016KT 05/01 A3002 RMK A01 T00500012  RH  077%=      5-min Rain = 0
KAM2 110838Z 00017KT 05/01 A3002 RMK A01 T00500012  RH  077%=      5-min Rain = 0
KAM2 110839Z 01018G23KT 05/01 A3002 RMK A01 T00500012  RH  077%=      5-min Rain = 0
KAM2 110840Z 01016G23KT 05/01 A3003 RMK A01 T00500012  RH  077%=      5-min Rain = 0
KAM2 110841Z 36016G21KT 05/01 A3003 RMK A01 T00500012  RH  077%=      5-min Rain = 0
KAM2 110842Z 00017KT 05/01 A3003 RMK A01 T00500012  RH  077%=      5-min Rain = 0
KAM2 110843Z 00017KT 05/01 A3003 RMK A01 T00500012  RH  077%=      5-min Rain = 0
KAM2 110844Z 01017G22KT 05/01 A3003 RMK A01 T00490012  RH  077%=      5-min Rain = 0
KAM2 110845Z 01017G22KT 05/01 A3003 RMK A01 T00490012  RH  077%=      5-min Rain = 0
KAM2 110846Z 01019KT 05/01 A3004 RMK A01 T00490012  RH  077%=      5-min Rain = 0
KAM2 110847Z 01021KT 05/01 A3004 RMK A01 T00490012  RH  077%=      5-min Rain = 0
KAM2 110848Z 01020G25KT 05/01 A3004 RMK A01 T00490012  RH  077%=      5-min Rain = 0
KAM2 110849Z 01017KT 05/01 A3004 RMK A01 T00490011  RH  077%=      5-min Rain = 0
KAM2 110850Z 01013G18KT 05/01 A3004 RMK A01 T00490012  RH  077%=      5-min Rain = 0
KAM2 110851Z 01019KT 05/01 A3004 RMK A01 T00490012  RH  077%=      5-min Rain = 0
KAM2 110852Z 01017G22KT 05/01 A3004 RMK A01 T00490012  RH  077%=      5-min Rain = 0
KAM2 110853Z 01020KT 05/01 A3004 RMK A01 T00490012  RH  077%=      5-min Rain = 0
KAM2 110854Z 01017KT 05/01 A3005 RMK A01 T00490012  RH  077%=      5-min Rain = 0
KAM2 110855Z 01021KT 05/01 A3005 RMK A01 T00480011  RH  077%=      5-min Rain = 0
KAM2 110856Z 01019G25KT 05/01 A3005 RMK A01 T00480010  RH  077%=      5-min Rain = 0
KAM2 110857Z 02021G26KT 05/01 A3005 RMK A01 T00470010  RH  077%=      5-min Rain = 0
KAM2 110858Z 36017KT 05/01 A3005 RMK A01 T00460009  RH  077%=      5-min Rain = 0
KAM2 110859Z 01017G22KT 05/01 A3005 RMK A01 T00450009  RH  077%=      5-min Rain = 0
KAM2 110900Z 00021KT 05/01 A3005 RMK A01 T00450009  RH  077%=      5-min Rain = 0
KAM2 110901Z 00019G26KT 04/01 A3005 RMK A01 T00440008  RH  078%=      5-min Rain = 0
KAM2 110902Z 00019KT 04/01 A3005 RMK A01 T00430008  RH  078%=      5-min Rain = 0
KAM2 110903Z 00018G23KT 04/01 A3006 RMK A01 T00420007  RH  078%=      5-min Rain = 0
KAM2 110904Z 00017KT 04/01 A3006 RMK A01 T00420007  RH  078%=      5-min Rain = 0
KAM2 110905Z 00019KT 04/01 A3006 RMK A01 T00420007  RH  078%=      5-min Rain = 0
KAM2 110906Z 01021G26KT 04/01 A3006 RMK A01 T00410007  RH  078%=      5-min Rain = 0
KAM2 110907Z 00025KT 04/01 A3006 RMK A01 T00410007  RH  079%=      5-min Rain = 0
KAM2 110908Z 00021G28KT 04/01 A3006 RMK A01 T00390007  RH  079%=      5-min Rain = 0
KAM2 110909Z 00024G29KT 04/01 A3006 RMK A01 T00380007  RH  080%=      5-min Rain = 0
KAM2 110910Z 00021G27KT 04/01 A3006 RMK A01 T00380007  RH  080%=      5-min Rain = 0
KAM2 110911Z 00018G23KT 04/01 A3006 RMK A01 T00370007  RH  081%=      5-min Rain = 0
KAM2 110912Z 01024KT 04/01 A3006 RMK A01 T00370007  RH  081%=      5-min Rain = 0
KAM2 110913Z 00023KT 04/01 A3006 RMK A01 T00360007  RH  081%=      5-min Rain = 0
KAM2 110914Z 36025G30KT 04/01 A3006 RMK A01 T00360007  RH  081%=      5-min Rain = 0
KAM2 110915Z 00023G28KT 04/01 A3007 RMK A01 T00360006  RH  081%=      5-min Rain = 0
KAM2 110916Z 01021KT 04/01 A3007 RMK A01 T00350006  RH  081%=      5-min Rain = 0
KAM2 110917Z 01022G27KT 04/01 A3007 RMK A01 T00350006  RH  082%=      5-min Rain = 0
KAM2 110918Z 00020G27KT 03/01 A3007 RMK A01 T00340006  RH  082%=      5-min Rain = 0
KAM2 110919Z 01023G31KT 03/01 A3007 RMK A01 T00340006  RH  082%=      5-min Rain = 0
KAM2 110920Z 01024KT 03/01 A3008 RMK A01 T00330005  RH  082%=      5-min Rain = 0
KAM2 110921Z 01023G28KT 03/00 A3007 RMK A01 T00320004  RH  082%=      5-min Rain = 0
KAM2 110922Z 01023G29KT 03/00 A3007 RMK A01 T00300003  RH  082%=      5-min Rain = 0
KAM2 110923Z 01019KT 03/00 A3008 RMK A01 T00290003  RH  083%=      5-min Rain = 0
KAM2 110924Z 01019G24KT 03/00 A3008 RMK A01 T00290003  RH  083%=      5-min Rain = 0
KAM2 110925Z 01018KT 03/00 A3008 RMK A01 T00280003  RH  083%=      5-min Rain = 0
KAM2 110926Z 00022G30KT 03/00 A3008 RMK A01 T00280003  RH  083%=      5-min Rain = 0
KAM2 110927Z 00025KT 03/00 A3008 RMK A01 T00270002  RH  083%=      5-min Rain = 0
KAM2 110928Z 01021G28KT 03/00 A3009 RMK A01 T00270002  RH  083%=      5-min Rain = 0
KAM2 110929Z 01023G29KT 03/00 A3009 RMK A01 T00270002  RH  084%=      5-min Rain = 0
KAM2 110930Z 00024G29KT 03/00 A3009 RMK A01 T00260001  RH  084%=      5-min Rain = 0
KAM2 110931Z 00023G30KT 03/00 A3009 RMK A01 T00260000  RH  084%=      5-min Rain = 0
KAM2 110932Z 01021KT 03/00 A3009 RMK A01 T002500-0  RH  084%=      5-min Rain = 0
KAM2 110933Z 01020G28KT 03/00 A3009 RMK A01 T00250000  RH  084%=      5-min Rain = 0
KAM2 110934Z 00021G26KT 02/00 A3009 RMK A01 T002400-0  RH  084%=      5-min Rain = 0
KAM2 110935Z 01019G25KT 02/00 A3009 RMK A01 T002400-0  RH  084%=      5-min Rain = 0
KAM2 110936Z 01021G28KT 02/00 A3009 RMK A01 T002400-0  RH  084%=      5-min Rain = 0
KAM2 110937Z 01024G30KT 02/00 A3009 RMK A01 T002400-0  RH  084%=      5-min Rain = 0
KAM2 110938Z 02024KT 02/M00 A301 RMK A01 T00231001  RH  084%=      5-min Rain = 0
KAM2 110939Z 01018KT 02/M00 A301 RMK A01 T00221001  RH  085%=      5-min Rain = 0
KAM2 110940Z 01022KT 02/M00 A301 RMK A01 T00221001  RH  085%=      5-min Rain = 0
KAM2 110941Z 01018KT 02/M00 A301 RMK A01 T00211001  RH  085%=      5-min Rain = 0
KAM2 110942Z 01017KT 02/M00 A301 RMK A01 T00211001  RH  086%=      5-min Rain = 0
KAM2 110943Z 00017KT 02/M00 A301 RMK A01 T00201001  RH  086%=      5-min Rain = 0
KAM2 110944Z 00021G26KT 02/M00 A301 RMK A01 T00211001  RH  086%=      5-min Rain = 0
KAM2 110945Z 00025G32KT 02/M00 A301 RMK A01 T00201002  RH  085%=      5-min Rain = 0
KAM2 110946Z 01026KT 02/M00 A301 RMK A01 T00191003  RH  085%=      5-min Rain = 0
KAM2 110947Z 00021G28KT 02/M00 A3011 RMK A01 T00181004  RH  085%=      5-min Rain = 0
KAM2 110948Z 00022G32KT 02/M00 A3011 RMK A01 T00181004  RH  086%=      5-min Rain = 0
KAM2 110949Z 00023G28KT 02/M00 A3011 RMK A01 T00171004  RH  086%=      5-min Rain = 0
KAM2 110950Z 00022G27KT 02/M00 A3011 RMK A01 T00161004  RH  086%=      5-min Rain = 0
KAM2 110951Z 00023G28KT 02/M00 A3012 RMK A01 T00161004  RH  087%=      5-min Rain = 0
KAM2 110952Z 01021KT 02/M00 A3012 RMK A01 T00151004  RH  087%=      5-min Rain = 0
KAM2 110953Z 01022G30KT 01/M01 A3012 RMK A01 T00141005  RH  087%=      5-min Rain = 0
KAM2 110954Z 01025G34KT 01/M01 A3012 RMK A01 T00141005  RH  088%=      5-min Rain = 0
KAM2 110955Z 01026G33KT 01/M01 A3012 RMK A01 T00131005  RH  088%=      5-min Rain = 0
KAM2 110956Z 01026G32KT 01/M01 A3012 RMK A01 T00121006  RH  088%=      5-min Rain = 0
KAM2 110957Z 01021G29KT 01/M01 A3012 RMK A01 T00121006  RH  088%=      5-min Rain = 0
KAM2 110958Z 01023G29KT 01/M01 A3012 RMK A01 T00111006  RH  088%=      5-min Rain = 0
KAM2 110959Z 36027G32KT 01/M01 A3013 RMK A01 T00111008  RH  088%=      5-min Rain = 0
KAM2 111000Z 00025KT 01/M01 A3013 RMK A01 T00101009  RH  087%=      5-min Rain = 0
KAM2 111001Z 00028G33KT 01/M01 A3013 RMK A01 T00081010  RH  087%=      5-min Rain = 0
KAM2 111002Z 00023G32KT 01/M01 A3013 RMK A01 T00071010  RH  088%=      5-min Rain = 0
KAM2 111003Z 01028G35KT 01/M01 A3014 RMK A01 T00071011  RH  088%=      5-min Rain = 0
KAM2 111004Z 01029G34KT 01/M01 A3014 RMK A01 T00061012  RH  088%=      5-min Rain = 0
KAM2 111005Z 01023G28KT 01/M01 A3014 RMK A01 T00051012  RH  089%=      5-min Rain = 0
KAM2 111006Z 01022G28KT 00/M01 A3014 RMK A01 T00041012  RH  089%=      5-min Rain = 0
KAM2 111007Z 01021G26KT 00/M01 A3014 RMK A01 T00031012  RH  090%=      5-min Rain = 0
KAM2 111008Z 01021G27KT 00/M01 A3014 RMK A01 T00031011  RH  090%=      5-min Rain = 0
KAM2 111009Z 01023KT 00/M01 A3014 RMK A01 T00021011  RH  091%=      5-min Rain = 0
KAM2 111010Z 01024KT 00/M01 A3015 RMK A01 T00021011  RH  091%=      5-min Rain = 0
KAM2 111011Z 01021G26KT 00/M01 A3015 RMK A01 T00011011  RH  092%=      5-min Rain = 0
KAM2 111012Z 01024KT 00/M01 A3015 RMK A01 T00011010  RH  092%=      5-min Rain = 0
KAM2 111013Z 02019G25KT 00/M01 A3015 RMK A01 T00011010  RH  092%=      5-min Rain = 0
KAM2 111014Z 01017G23KT 00/M01 A3015 RMK A01 T00011010  RH  093%=      5-min Rain = 0
KAM2 111015Z 01018KT 00/M01 A3015 RMK A01 T00011009  RH  093%=      5-min Rain = 0
KAM2 111016Z 01023KT 00/M01 A3015 RMK A01 T00011009  RH  093%=      5-min Rain = 0
KAM2 111017Z 01023G28KT 00/M01 A3015 RMK A01 T00011009  RH  093%=      5-min Rain = 0
KAM2 111018Z 00021G28KT 00/M01 A3015 RMK A01 T00011009  RH  093%=      5-min Rain = 0
KAM2 111019Z 00021KT 00/01 A3015 RMK A01 T000000-9  RH  093%=      5-min Rain = 0
KAM2 111020Z 01021G26KT 00/01 A3015 RMK A01 T00000-10  RH  093%=      5-min Rain = 0
KAM2 111021Z 36024G29KT M00/M01 A3016 RMK A01 T10011011  RH  093%=      5-min Rain = 0
KAM2 111022Z 36025G30KT M00/M01 A3015 RMK A01 T10021013  RH  092%=      5-min Rain = 0
KAM2 111023Z 00024KT M00/M02 A3016 RMK A01 T10041016  RH  092%=      5-min Rain = 0
KAM2 111024Z 00023KT M01/M02 A3016 RMK A01 T10051017  RH  092%=      5-min Rain = 0
KAM2 111025Z 00024G29KT M01/M02 A3016 RMK A01 T10061017  RH  092%=      5-min Rain = 0
KAM2 111026Z 36026KT M01/M02 A3016 RMK A01 T10071019  RH  092%=      5-min Rain = 0
KAM2 111027Z 01020G26KT M01/M02 A3017 RMK A01 T10071019  RH  092%=      5-min Rain = 0
KAM2 111028Z 01024G30KT M01/M02 A3017 RMK A01 T10081019  RH  092%=      5-min Rain = 0
KAM2 111029Z 36023G28KT M01/M02 A3017 RMK A01 T10081020  RH  092%=      5-min Rain = 0
KAM2 111030Z 01026G32KT M01/M02 A3017 RMK A01 T10081020  RH  092%=      5-min Rain = 0
KAM2 111031Z 35022G28KT M01/M02 A3017 RMK A01 T10081021  RH  091%=      5-min Rain = 0
KAM2 111032Z 36026KT M01/M02 A3017 RMK A01 T10091022  RH  091%=      5-min Rain = 0
KAM2 111033Z 00019G26KT M01/M02 A3017 RMK A01 T10091022  RH  091%=      5-min Rain = 0
KAM2 111034Z 36017KT M01/M02 A3018 RMK A01 T10101022  RH  091%=      5-min Rain = 0
KAM2 111035Z 00022G28KT M01/M02 A3018 RMK A01 T10101021  RH  092%=      5-min Rain = 0
KAM2 111036Z 01024KT M01/M02 A3018 RMK A01 T10101022  RH  092%=      5-min Rain = 0
KAM2 111037Z 01025G31KT M01/M02 A3018 RMK A01 T10101022  RH  092%=      5-min Rain = 0
KAM2 111038Z 00024KT M01/M02 A3018 RMK A01 T10111023  RH  091%=      5-min Rain = 0
KAM2 111039Z 00023G28KT M01/M02 A3018 RMK A01 T10111024  RH  091%=      5-min Rain = 0
KAM2 111040Z 00023KT M01/M02 A3018 RMK A01 T10111024  RH  091%=      5-min Rain = 0
KAM2 111041Z 00022G28KT M01/M02 A3018 RMK A01 T10121024  RH  092%=      5-min Rain = 0
KAM2 111042Z 36022G28KT M01/M02 A3018 RMK A01 T10121024  RH  092%=      5-min Rain = 0
KAM2 111043Z 00025G30KT M01/M02 A3019 RMK A01 T10121023  RH  092%=      5-min Rain = 0
KAM2 111044Z 00022G27KT M01/M02 A3019 RMK A01 T10121024  RH  092%=      5-min Rain = 0
KAM2 111045Z 01018KT M01/M02 A3019 RMK A01 T10121024  RH  092%=      5-min Rain = 0
KAM2 111046Z 01026G32KT M01/M02 A3019 RMK A01 T10121024  RH  092%=      5-min Rain = 0
KAM2 111047Z 01031G37KT M01/M02 A3019 RMK A01 T10131024  RH  092%=      5-min Rain = 0
KAM2 111048Z 01027G34KT M01/M03 A3019 RMK A01 T10131025  RH  092%=      5-min Rain = 0
KAM2 111049Z 01027G33KT M01/M03 A3019 RMK A01 T10131025  RH  092%=      5-min Rain = 0
KAM2 111050Z 01023G30KT M01/M03 A3019 RMK A01 T10131025  RH  092%=      5-min Rain = 0
KAM2 111051Z 01025G31KT M01/M03 A302 RMK A01 T10131025  RH  092%=      5-min Rain = 0
KAM2 111052Z 01029G35KT M01/M03 A302 RMK A01 T10141025  RH  092%=      5-min Rain = 0
KAM2 111053Z 01024G33KT M01/M03 A302 RMK A01 T10141026  RH  092%=      5-min Rain = 0
KAM2 111054Z 01027G32KT M01/M03 A302 RMK A01 T10141026  RH  092%=      5-min Rain = 0
KAM2 111055Z 01021G28KT M01/M03 A302 RMK A01 T10141026  RH  092%=      5-min Rain = 0
KAM2 111056Z 01022G27KT M01/M03 A3021 RMK A01 T10141025  RH  092%=      5-min Rain = 0
KAM2 111057Z 01023KT M01/M03 A3021 RMK A01 T10141025  RH  092%=      5-min Rain = 0
KAM2 111058Z 01019KT M01/M03 A3021 RMK A01 T10141025  RH  092%=      5-min Rain = 0
KAM2 111059Z 01023G31KT M01/M03 A3021 RMK A01 T10141025  RH  093%=      5-min Rain = 0
KAM2 111100Z 02020KT M01/M03 A3021 RMK A01 T10141025  RH  093%=      5-min Rain = 0
KAM2 111101Z 02023KT M01/M03 A3021 RMK A01 T10141025  RH  093%=      5-min Rain = 0
KAM2 111102Z 02021G27KT M01/M03 A3021 RMK A01 T10141025  RH  092%=      5-min Rain = 0
KAM2 111103Z 02027G32KT M01/M03 A3021 RMK A01 T10141025  RH  092%=      5-min Rain = 0
KAM2 111104Z 01024G29KT M01/M03 A3022 RMK A01 T10141026  RH  092%=      5-min Rain = 0
KAM2 111105Z 00022G27KT M01/M03 A3021 RMK A01 T10141026  RH  092%=      5-min Rain = 0
KAM2 111106Z 01018G24KT M01/M03 A3021 RMK A01 T10141027  RH  091%=      5-min Rain = 0
KAM2 111107Z 01027G33KT M01/M03 A3021 RMK A01 T10141026  RH  091%=      5-min Rain = 0
KAM2 111108Z 00022KT M01/M03 A3021 RMK A01 T10141027  RH  091%=      5-min Rain = 0
KAM2 111109Z 01024KT M01/M03 A3021 RMK A01 T10141028  RH  090%=      5-min Rain = 0
KAM2 111110Z 01023G28KT M02/M03 A3021 RMK A01 T10151028  RH  090%=      5-min Rain = 0
KAM2 111111Z 01022G27KT M02/M03 A3021 RMK A01 T10151028  RH  091%=      5-min Rain = 0
KAM2 111112Z 01025G34KT M02/M03 A3021 RMK A01 T10151028  RH  091%=      5-min Rain = 0
KAM2 111113Z 01028KT M02/M03 A3021 RMK A01 T10151028  RH  091%=      5-min Rain = 0
KAM2 111114Z 01021G26KT M02/M03 A3021 RMK A01 T10151029  RH  090%=      5-min Rain = 0
KAM2 111115Z 01022G33KT M02/M03 A3021 RMK A01 T10151028  RH  091%=      5-min Rain = 0
KAM2 111116Z 01027KT M02/M03 A3021 RMK A01 T10151028  RH  091%=      5-min Rain = 0
KAM2 111117Z 01025G30KT M02/M03 A3021 RMK A01 T10151029  RH  091%=      5-min Rain = 0
KAM2 111118Z 02021KT M02/M03 A3022 RMK A01 T10151028  RH  091%=      5-min Rain = 0
KAM2 111119Z 01023G28KT M02/M03 A3022 RMK A01 T10161028  RH  091%=      5-min Rain = 0
KAM2 111120Z 01019KT M02/M03 A3022 RMK A01 T10161028  RH  091%=      5-min Rain = 0
KAM2 111121Z 01016KT M02/M03 A3022 RMK A01 T10161027  RH  092%=      5-min Rain = 0
KAM2 111122Z 01015KT M02/M03 A3022 RMK A01 T10161027  RH  092%=      5-min Rain = 0
KAM2 111123Z 01017G23KT M02/M03 A3022 RMK A01 T10151026  RH  093%=      5-min Rain = 0
KAM2 111124Z 01017KT M02/M03 A3022 RMK A01 T10151026  RH  093%=      5-min Rain = 0
KAM2 111125Z 01020G25KT M02/M03 A3022 RMK A01 T10151026  RH  093%=      5-min Rain = 0
KAM2 111126Z 01015KT M02/M03 A3022 RMK A01 T10151026  RH  093%=      5-min Rain = 0
KAM2 111127Z 00016G25KT M02/M03 A3023 RMK A01 T10161026  RH  093%=      5-min Rain = 0
KAM2 111128Z 01019G27KT M02/M03 A3023 RMK A01 T10161026  RH  093%=      5-min Rain = 0
KAM2 111129Z 00021G28KT M02/M03 A3023 RMK A01 T10151026  RH  092%=      5-min Rain = 0
KAM2 111130Z 01023KT M02/M03 A3023 RMK A01 T10151027  RH  092%=      5-min Rain = 0
KAM2 111131Z 01025KT M02/M03 A3023 RMK A01 T10161028  RH  091%=      5-min Rain = 0
KAM2 111132Z 01023G30KT M02/M03 A3023 RMK A01 T10161028  RH  091%=      5-min Rain = 0
KAM2 111133Z 01021G29KT M02/M03 A3023 RMK A01 T10161029  RH  091%=      5-min Rain = 0
KAM2 111134Z 01026G31KT M02/M03 A3023 RMK A01 T10161029  RH  091%=      5-min Rain = 0
KAM2 111135Z 01024KT M02/M03 A3023 RMK A01 T10161029  RH  091%=      5-min Rain = 0
KAM2 111136Z 01024G31KT M02/M03 A3023 RMK A01 T10161029  RH  091%=      5-min Rain = 0
KAM2 111137Z 01023KT M02/M03 A3023 RMK A01 T10161029  RH  091%=      5-min Rain = 0
KAM2 111138Z 01024KT M02/M03 A3023 RMK A01 T10161029  RH  091%=      5-min Rain = 0
KAM2 111139Z 01017G27KT M02/M03 A3024 RMK A01 T10161029  RH  091%=      5-min Rain = 0
KAM2 111140Z 01019G25KT M02/M03 A3023 RMK A01 T10161029  RH  091%=      5-min Rain = 0
KAM2 111141Z 01018G24KT M02/M03 A3023 RMK A01 T10161029  RH  091%=      5-min Rain = 0
KAM2 111142Z 00024G34KT M02/M03 A3024 RMK A01 T10161029  RH  091%=      5-min Rain = 0
KAM2 111143Z 00023G31KT M02/M03 A3024 RMK A01 T10161030  RH  090%=      5-min Rain = 0
KAM2 111144Z 01022G28KT M02/M03 A3024 RMK A01 T10161031  RH  090%=      5-min Rain = 0
KAM2 111145Z 01019G25KT M02/M03 A3024 RMK A01 T10171031  RH  090%=      5-min Rain = 0
KAM2 111146Z 01018G24KT M02/M03 A3024 RMK A01 T10171031  RH  090%=      5-min Rain = 0
KAM2 111147Z 01020G25KT M02/M03 A3024 RMK A01 T10171031  RH  090%=      5-min Rain = 0
KAM2 111148Z 01021G27KT M02/M03 A3024 RMK A01 T10171031  RH  090%=      5-min Rain = 0
KAM2 111149Z 02022KT M02/M03 A3024 RMK A01 T10171032  RH  090%=      5-min Rain = 0
KAM2 111150Z 01018KT M02/M03 A3024 RMK A01 T10171032  RH  090%=      5-min Rain = 0
KAM2 111151Z 01020G25KT M02/M03 A3024 RMK A01 T10171032  RH  090%=      5-min Rain = 0
KAM2 111152Z 01022KT M02/M03 A3024 RMK A01 T10171032  RH  090%=      5-min Rain = 0
KAM2 111153Z 00021G28KT M02/M03 A3025 RMK A01 T10181032  RH  090%=      5-min Rain = 0
KAM2 111154Z 36024G31KT M02/M03 A3024 RMK A01 T10181032  RH  090%=      5-min Rain = 0
KAM2 111155Z 00023G28KT M02/M03 A3025 RMK A01 T10191034  RH  090%=      5-min Rain = 0
KAM2 111156Z 00017KT M02/M03 A3025 RMK A01 T10191034  RH  090%=      5-min Rain = 0
KAM2 111157Z 00022G28KT M02/M03 A3025 RMK A01 T10201034  RH  090%=      5-min Rain = 0
KAM2 111158Z 00023G29KT M02/M04 A3025 RMK A01 T10201035  RH  090%=      5-min Rain = 0
KAM2 111159Z 36022G27KT M02/M04 A3025 RMK A01 T10211036  RH  090%=      5-min Rain = 0
KAM2 111200Z 01029G34KT M02/M04 A3025 RMK A01 T10211036  RH  089%=      5-min Rain = 0
KAM2 111201Z 01026G33KT M02/M04 A3026 RMK A01 T10231039  RH  089%=      5-min Rain = 0
KAM2 111202Z 01027G32KT M02/M04 A3026 RMK A01 T10241041  RH  088%=      5-min Rain = 0
KAM2 111203Z 01026KT M03/M04 A3026 RMK A01 T10251043  RH  088%=      5-min Rain = 0
KAM2 111204Z 00025KT M03/M04 A3026 RMK A01 T10261044  RH  087%=      5-min Rain = 0
KAM2 111205Z 01025G31KT M03/M05 A3026 RMK A01 T10271045  RH  087%=      5-min Rain = 0
KAM2 111206Z 01022G33KT M03/M05 A3026 RMK A01 T10271045  RH  087%=      5-min Rain = 0
KAM2 111207Z 01025G32KT M03/M04 A3026 RMK A01 T10271044  RH  088%=      5-min Rain = 0
KAM2 111208Z 01024KT M03/M05 A3026 RMK A01 T10271045  RH  087%=      5-min Rain = 0
KAM2 111209Z 01020G25KT M03/M05 A3027 RMK A01 T10271045  RH  087%=      5-min Rain = 0
KAM2 111210Z 01023G29KT M03/M04 A3026 RMK A01 T10261044  RH  087%=      5-min Rain = 0
KAM2 111211Z 01020G26KT M03/M04 A3027 RMK A01 T10261044  RH  087%=      5-min Rain = 0
KAM2 111212Z 01020KT M03/M04 A3027 RMK A01 T10261044  RH  088%=      5-min Rain = 0
KAM2 111213Z 01019KT M03/M04 A3027 RMK A01 T10261043  RH  088%=      5-min Rain = 0
KAM2 111214Z 01019G26KT M03/M04 A3027 RMK A01 T10261043  RH  088%=      5-min Rain = 0
KAM2 111215Z 01023KT M03/M04 A3027 RMK A01 T10261044  RH  088%=      5-min Rain = 0
KAM2 111216Z 00020G28KT M03/M04 A3027 RMK A01 T10271044  RH  088%=      5-min Rain = 0
KAM2 111217Z 00026G31KT M03/M05 A3027 RMK A01 T10271045  RH  088%=      5-min Rain = 0
KAM2 111218Z 01024G29KT M03/M05 A3027 RMK A01 T10281046  RH  087%=      5-min Rain = 0
KAM2 111219Z 01023KT M03/M05 A3027 RMK A01 T10281046  RH  087%=      5-min Rain = 0
KAM2 111220Z 00021KT M03/M05 A3027 RMK A01 T10281046  RH  088%=      5-min Rain = 0
KAM2 111221Z 00019G26KT M03/M05 A3028 RMK A01 T10281046  RH  088%=      5-min Rain = 0
KAM2 111222Z 01021KT M03/M05 A3028 RMK A01 T10281046  RH  088%=      5-min Rain = 0
KAM2 111223Z 01022KT M03/M05 A3028 RMK A01 T10291046  RH  088%=      5-min Rain = 0
KAM2 111224Z 01023G31KT M03/M05 A3028 RMK A01 T10291046  RH  088%=      5-min Rain = 0
KAM2 111225Z 36025G30KT M03/M05 A3028 RMK A01 T10301046  RH  088%=      5-min Rain = 0
KAM2 111226Z 01022KT M03/M05 A3028 RMK A01 T10301047  RH  088%=      5-min Rain = 0
KAM2 111227Z 00023G28KT M03/M05 A3028 RMK A01 T10311047  RH  089%=      5-min Rain = 0
KAM2 111228Z 01021G26KT M03/M05 A3028 RMK A01 T10311047  RH  089%=      5-min Rain = 0
KAM2 111229Z 00021G26KT M03/M05 A3028 RMK A01 T10311047  RH  089%=      5-min Rain = 0
KAM2 111230Z 01024G29KT M03/M05 A3028 RMK A01 T10311047  RH  089%=      5-min Rain = 0
KAM2 111231Z 01028G34KT M03/M05 A3029 RMK A01 T10311048  RH  088%=      5-min Rain = 0
KAM2 111232Z 01022G27KT M03/M05 A3029 RMK A01 T10311050  RH  087%=      5-min Rain = 0
KAM2 111233Z 01022G28KT M03/M05 A3029 RMK A01 T10311050  RH  087%=      5-min Rain = 0
KAM2 111234Z 01018KT M03/M05 A3029 RMK A01 T10311050  RH  087%=      5-min Rain = 0
KAM2 111235Z 01022KT M03/M05 A3029 RMK A01 T10311049  RH  087%=      5-min Rain = 0
KAM2 111236Z 01020G27KT M03/M05 A3029 RMK A01 T10311049  RH  087%=      5-min Rain = 0
KAM2 111237Z 01022G28KT M03/M05 A3029 RMK A01 T10311050  RH  087%=      5-min Rain = 0
KAM2 111238Z 01021G30KT M03/M05 A3029 RMK A01 T10311050  RH  087%=      5-min Rain = 0
KAM2 111239Z 01019G25KT M03/M05 A303 RMK A01 T10321050  RH  087%=      5-min Rain = 0
KAM2 111240Z 01025KT M03/M05 A303 RMK A01 T10321050  RH  087%=      5-min Rain = 0
KAM2 111241Z 01026G31KT M03/M05 A303 RMK A01 T10321052  RH  086%=      5-min Rain = 0
KAM2 111242Z 01024G30KT M03/M05 A303 RMK A01 T10321053  RH  085%=      5-min Rain = 0
KAM2 111243Z 00023G30KT M03/M06 A303 RMK A01 T10331055  RH  085%=      5-min Rain = 0
KAM2 111244Z 01021G29KT M03/M05 A303 RMK A01 T10331054  RH  085%=      5-min Rain = 0
KAM2 111245Z 01019G26KT M03/M05 A303 RMK A01 T10331054  RH  085%=      5-min Rain = 0
KAM2 111246Z 02023G29KT M03/M06 A303 RMK A01 T10331055  RH  085%=      5-min Rain = 0
KAM2 111247Z 01027G32KT M03/M06 A303 RMK A01 T10331055  RH  085%=      5-min Rain = 0
KAM2 111248Z 02030KT M03/M06 A303 RMK A01 T10331055  RH  085%=      5-min Rain = 0
KAM2 111249Z 01029G35KT M03/M06 A303 RMK A01 T10331055  RH  084%=      5-min Rain = 0
KAM2 111250Z 01023KT M03/M06 A303 RMK A01 T10331055  RH  085%=      5-min Rain = 0
KAM2 111251Z 01020G27KT M03/M05 A3031 RMK A01 T10331054  RH  085%=      5-min Rain = 0
KAM2 111252Z 01023G32KT M03/M05 A3031 RMK A01 T10331054  RH  086%=      5-min Rain = 0
KAM2 111253Z 01025G30KT M03/M05 A3031 RMK A01 T10331053  RH  086%=      5-min Rain = 0
KAM2 111254Z 01021KT M03/M05 A3031 RMK A01 T10331054  RH  086%=      5-min Rain = 0
KAM2 111255Z 01019KT M03/M05 A3031 RMK A01 T10331053  RH  086%=      5-min Rain = 0
KAM2 111256Z 00020G25KT M03/M05 A3031 RMK A01 T10331053  RH  086%=      5-min Rain = 0
KAM2 111257Z 01019G24KT M03/M05 A3031 RMK A01 T10331053  RH  087%=      5-min Rain = 0
KAM2 111258Z 01023KT M03/M05 A3032 RMK A01 T10341053  RH  087%=      5-min Rain = 0
KAM2 111259Z 02022KT M03/M05 A3032 RMK A01 T10341052  RH  087%=      5-min Rain = 0
KAM2 111300Z 01023KT M03/M05 A3032 RMK A01 T10341052  RH  088%=      5-min Rain = 0
KAM2 111301Z 01021G26KT M03/M05 A3032 RMK A01 T10341051  RH  088%=      5-min Rain = 0
KAM2 111302Z 01023G36KT M03/M05 A3032 RMK A01 T10341052  RH  087%=      5-min Rain = 0
KAM2 111303Z 01028G36KT M03/M06 A3032 RMK A01 T10341055  RH  086%=      5-min Rain = 0
KAM2 111304Z 00021G27KT M03/M06 A3033 RMK A01 T10341057  RH  084%=      5-min Rain = 0
KAM2 111305Z 01023KT M03/M06 A3033 RMK A01 T10341058  RH  084%=      5-min Rain = 0
KAM2 111306Z 01025KT M04/M06 A3033 RMK A01 T10351059  RH  084%=      5-min Rain = 0
KAM2 111307Z 01022G30KT M04/M06 A3033 RMK A01 T10351059  RH  084%=      5-min Rain = 0
KAM2 111308Z 02022G27KT M04/M06 A3033 RMK A01 T10351058  RH  084%=      5-min Rain = 0
KAM2 111309Z 02025KT M04/M06 A3033 RMK A01 T10361057  RH  085%=      5-min Rain = 0
KAM2 111310Z 01020G29KT M04/M06 A3033 RMK A01 T10361057  RH  085%=      5-min Rain = 0
KAM2 111311Z 00022G28KT M04/M06 A3033 RMK A01 T10361056  RH  086%=      5-min Rain = 0
KAM2 111312Z 00026G32KT M04/M06 A3034 RMK A01 T10361056  RH  086%=      5-min Rain = 0
KAM2 111313Z 01024G30KT M04/M06 A3034 RMK A01 T10371057  RH  086%=      5-min Rain = 0
KAM2 111314Z 01027KT M04/M06 A3034 RMK A01 T10371060  RH  084%=      5-min Rain = 0
KAM2 111315Z 01026G35KT M04/M06 A3034 RMK A01 T10371062  RH  083%=      5-min Rain = 0
KAM2 111316Z 01030KT M04/M07 A3034 RMK A01 T10381065  RH  082%=      5-min Rain = 0
KAM2 111317Z 02029G37KT M04/M07 A3034 RMK A01 T10391068  RH  080%=      5-min Rain = 0
KAM2 111318Z 02029G38KT M04/M07 A3034 RMK A01 T10391069  RH  080%=      5-min Rain = 0
KAM2 111319Z 02028G35KT M04/M07 A3035 RMK A01 T10401069  RH  080%=      5-min Rain = 0
KAM2 111320Z 02026G31KT M04/M07 A3035 RMK A01 T10401069  RH  080%=      5-min Rain = 0
KAM2 111321Z 01024G29KT M04/M07 A3035 RMK A01 T10401068  RH  081%=      5-min Rain = 0
KAM2 111322Z 02020G25KT M04/M07 A3035 RMK A01 T10401068  RH  081%=      5-min Rain = 0
KAM2 111323Z 03019G25KT M04/M07 A3035 RMK A01 T10401067  RH  081%=      5-min Rain = 0
KAM2 111324Z 02021G27KT M04/M07 A3035 RMK A01 T10401067  RH  082%=      5-min Rain = 0
KAM2 111325Z 02023KT M04/M07 A3035 RMK A01 T10401067  RH  082%=      5-min Rain = 0
KAM2 111326Z 01020KT M04/M07 A3035 RMK A01 T10401067  RH  082%=      5-min Rain = 0
KAM2 111327Z 01020KT M04/M07 A3035 RMK A01 T10401066  RH  082%=      5-min Rain = 0
KAM2 111328Z 01016G22KT M04/M07 A3035 RMK A01 T10401065  RH  083%=      5-min Rain = 0
KAM2 111329Z 01022G28KT M04/M07 A3035 RMK A01 T10401065  RH  083%=      5-min Rain = 0
KAM2 111330Z 01025KT M04/M06 A3035 RMK A01 T10411064  RH  083%=      5-min Rain = 0
KAM2 111331Z 01025KT M04/M06 A3035 RMK A01 T10411064  RH  084%=      5-min Rain = 0
KAM2 111332Z 01024KT M04/M06 A3036 RMK A01 T10421063  RH  085%=      5-min Rain = 0
KAM2 111333Z 02022KT M04/M06 A3036 RMK A01 T10421062  RH  086%=      5-min Rain = 0
KAM2 111334Z 01018G24KT M04/M06 A3036 RMK A01 T10421061  RH  087%=      5-min Rain = 0
KAM2 111335Z 01024KT M04/M06 A3036 RMK A01 T10431061  RH  087%=      5-min Rain = 0
KAM2 111336Z 00022G30KT M04/M06 A3036 RMK A01 T10431060  RH  088%=      5-min Rain = 0
KAM2 111337Z 01026G35KT M04/M06 A3036 RMK A01 T10431061  RH  087%=      5-min Rain = 0
KAM2 111338Z 36026G34KT M04/M06 A3037 RMK A01 T10431062  RH  087%=      5-min Rain = 0
KAM2 111339Z 01027G35KT M04/M06 A3037 RMK A01 T10441063  RH  086%=      5-min Rain = 0
KAM2 111340Z 01027G33KT M05/M07 A3038 RMK A01 T10451066  RH  085%=      5-min Rain = 0
KAM2 111341Z 01028G35KT M05/M07 A3038 RMK A01 T10461069  RH  084%=      5-min Rain = 0
KAM2 111342Z 00030G36KT M05/M07 A3038 RMK A01 T10471073  RH  082%=      5-min Rain = 0
KAM2 111343Z 01030G36KT M05/M08 A3038 RMK A01 T10481076  RH  081%=      5-min Rain = 0
KAM2 111344Z 01028G33KT M05/M08 A3038 RMK A01 T10491077  RH  081%=      5-min Rain = 0
KAM2 111345Z 00029G37KT M05/M08 A3038 RMK A01 T10501077  RH  081%=      5-min Rain = 0
KAM2 111346Z 01023G31KT M05/M08 A3038 RMK A01 T10501077  RH  081%=      5-min Rain = 0
KAM2 111347Z 01032G37KT M05/M08 A3038 RMK A01 T10501076  RH  082%=      5-min Rain = 0
KAM2 111348Z 01028G35KT M05/M08 A3039 RMK A01 T10501077  RH  081%=      5-min Rain = 0
KAM2 111349Z 01026G33KT M05/M08 A3039 RMK A01 T10501077  RH  082%=      5-min Rain = 0
KAM2 111350Z 01026KT M05/M08 A3039 RMK A01 T10501076  RH  082%=      5-min Rain = 0
KAM2 111351Z 01022G28KT M05/M08 A3039 RMK A01 T10501077  RH  082%=      5-min Rain = 0
KAM2 111352Z 01025KT M05/M08 A3039 RMK A01 T10501076  RH  082%=      5-min Rain = 0
KAM2 111353Z 01022G29KT M05/M08 A3039 RMK A01 T10511077  RH  082%=      5-min Rain = 0
KAM2 111354Z 01024G33KT M05/M08 A3039 RMK A01 T10501077  RH  082%=      5-min Rain = 0
KAM2 111355Z 02025G33KT M05/M08 A3039 RMK A01 T10501076  RH  082%=      5-min Rain = 0
KAM2 111356Z 02026G31KT M05/M08 A3039 RMK A01 T10501077  RH  082%=      5-min Rain = 0
KAM2 111357Z 01023G30KT M05/M08 A3039 RMK A01 T10501077  RH  082%=      5-min Rain = 0
KAM2 111358Z 01019G26KT M05/M08 A3039 RMK A01 T10501076  RH  082%=      5-min Rain = 0
KAM2 111359Z 02021G27KT M05/M08 A3039 RMK A01 T10501076  RH  082%=      5-min Rain = 0
KAM2 111400Z 02021G29KT M05/M08 A3039 RMK A01 T10511076  RH  083%=      5-min Rain = 0
KAM2 111401Z 01022G27KT M05/M08 A304 RMK A01 T10501075  RH  083%=      5-min Rain = 0
KAM2 111402Z 01021G29KT M05/M07 A3039 RMK A01 T10501074  RH  083%=      5-min Rain = 0
KAM2 111403Z 01021G26KT M05/M07 A304 RMK A01 T10501074  RH  084%=      5-min Rain = 0
KAM2 111404Z 02022KT M05/M07 A304 RMK A01 T10501074  RH  084%=      5-min Rain = 0
KAM2 111405Z 01017G22KT M05/M07 A304 RMK A01 T10501073  RH  084%=      5-min Rain = 0
KAM2 111406Z 01022KT M05/M07 A304 RMK A01 T10501073  RH  084%=      5-min Rain = 0
KAM2 111407Z 01022G28KT M05/M07 A304 RMK A01 T10501073  RH  084%=      5-min Rain = 0
KAM2 111408Z 01024KT M05/M07 A304 RMK A01 T10501072  RH  085%=      5-min Rain = 0
KAM2 111409Z 01020G25KT M05/M07 A304 RMK A01 T10501072  RH  085%=      5-min Rain = 0
KAM2 111410Z 01026G31KT M05/M07 A304 RMK A01 T10501072  RH  085%=      5-min Rain = 0
KAM2 111411Z 01024G33KT M05/M07 A304 RMK A01 T10501072  RH  085%=      5-min Rain = 0
KAM2 111412Z 00024G29KT M05/M07 A304 RMK A01 T10501072  RH  085%=      5-min Rain = 0
KAM2 111413Z 01024KT M05/M07 A304 RMK A01 T10501072  RH  085%=      5-min Rain = 0
KAM2 111414Z 01023G29KT M05/M07 A304 RMK A01 T10501071  RH  085%=      5-min Rain = 0
KAM2 111415Z 01024G29KT M05/M07 A304 RMK A01 T10501071  RH  085%=      5-min Rain = 0
KAM2 111416Z 01021KT M05/M07 A304 RMK A01 T10501071  RH  085%=      5-min Rain = 0
KAM2 111417Z 00018G24KT M05/M07 A304 RMK A01 T10501071  RH  085%=      5-min Rain = 0
KAM2 111418Z 00024G30KT M05/M07 A304 RMK A01 T10501071  RH  085%=      5-min Rain = 0
KAM2 111419Z 00020G25KT M05/M07 A304 RMK A01 T10501071  RH  085%=      5-min Rain = 0
KAM2 111420Z 01022G30KT M05/M07 A3041 RMK A01 T10501071  RH  085%=      5-min Rain = 0
KAM2 111421Z 01023KT M05/M07 A3041 RMK A01 T10501072  RH  085%=      5-min Rain = 0
KAM2 111422Z 02021KT M05/M07 A3041 RMK A01 T10501072  RH  084%=      5-min Rain = 0
KAM2 111423Z 01020KT M05/M07 A3041 RMK A01 T10491072  RH  084%=      5-min Rain = 0
KAM2 111424Z 01020G29KT M05/M07 A3041 RMK A01 T10491072  RH  084%=      5-min Rain = 0
KAM2 111425Z 01025G30KT M05/M07 A3041 RMK A01 T10491072  RH  084%=      5-min Rain = 0
KAM2 111426Z 00021G28KT M05/M07 A3041 RMK A01 T10501074  RH  083%=      5-min Rain = 0
KAM2 111427Z 01021G27KT M05/M07 A3041 RMK A01 T10501073  RH  083%=      5-min Rain = 0
KAM2 111428Z 01025G31KT M05/M07 A3041 RMK A01 T10501074  RH  083%=      5-min Rain = 0
KAM2 111429Z 01024G29KT M05/M08 A3041 RMK A01 T10511075  RH  083%=      5-min Rain = 0
KAM2 111430Z 01025G30KT M05/M08 A3041 RMK A01 T10521075  RH  083%=      5-min Rain = 0
KAM2 111431Z 01023KT M05/M08 A3042 RMK A01 T10521076  RH  084%=      5-min Rain = 0
KAM2 111432Z 01020G28KT M05/M08 A3041 RMK A01 T10531076  RH  084%=      5-min Rain = 0
KAM2 111433Z 01025KT M05/M08 A3041 RMK A01 T10531075  RH  084%=      5-min Rain = 0
KAM2 111434Z 01019G26KT M05/M08 A3041 RMK A01 T10531075  RH  085%=      5-min Rain = 0
KAM2 111435Z 02019G24KT M05/M08 A3042 RMK A01 T10541075  RH  085%=      5-min Rain = 0
KAM2 111436Z 01017G22KT M05/M07 A3042 RMK A01 T10531074  RH  085%=      5-min Rain = 0
KAM2 111437Z 01018G25KT M05/M07 A3042 RMK A01 T10531074  RH  085%=      5-min Rain = 0
KAM2 111438Z 01023G29KT M05/M07 A3042 RMK A01 T10541074  RH  086%=      5-min Rain = 0
KAM2 111439Z 01023KT M05/M08 A3042 RMK A01 T10541075  RH  085%=      5-min Rain = 0
KAM2 111440Z 01023G30KT M05/M08 A3043 RMK A01 T10541075  RH  085%=      5-min Rain = 0
KAM2 111441Z 02020KT M06/M08 A3043 RMK A01 T10551076  RH  085%=      5-min Rain = 0
KAM2 111442Z 01021G27KT M06/M08 A3043 RMK A01 T10551076  RH  085%=      5-min Rain = 0
KAM2 111443Z 01028KT M06/M08 A3043 RMK A01 T10551076  RH  085%=      5-min Rain = 0
KAM2 111444Z 02027G34KT M06/M08 A3043 RMK A01 T10551078  RH  084%=      5-min Rain = 0
KAM2 111445Z 01027G34KT M06/M08 A3043 RMK A01 T10561079  RH  084%=      5-min Rain = 0
KAM2 111446Z 01029KT M06/M08 A3043 RMK A01 T10561079  RH  084%=      5-min Rain = 0
KAM2 111447Z 02025G31KT M06/M08 A3044 RMK A01 T10571080  RH  084%=      5-min Rain = 0
KAM2 111448Z 01025KT M06/M08 A3044 RMK A01 T10581080  RH  084%=      5-min Rain = 0
KAM2 111449Z 01026G32KT M06/M08 A3044 RMK A01 T10571079  RH  085%=      5-min Rain = 0
KAM2 111450Z 01023G30KT M06/M08 A3044 RMK A01 T10581079  RH  085%=      5-min Rain = 0
KAM2 111451Z 01021G27KT M06/M08 A3044 RMK A01 T10571079  RH  085%=      5-min Rain = 0
KAM2 111452Z 01024KT M06/M08 A3044 RMK A01 T10571079  RH  085%=      5-min Rain = 0
KAM2 111453Z 01024G29KT M06/M08 A3044 RMK A01 T10571079  RH  085%=      5-min Rain = 0
KAM2 111454Z 02021KT M06/M08 A3044 RMK A01 T10571079  RH  085%=      5-min Rain = 0
KAM2 111455Z 01023G29KT M06/M08 A3044 RMK A01 T10571078  RH  085%=      5-min Rain = 0
KAM2 111456Z 01021KT M06/M08 A3044 RMK A01 T10571078  RH  086%=      5-min Rain = 0
KAM2 111457Z 01022KT M06/M08 A3044 RMK A01 T10581077  RH  086%=      5-min Rain = 0
KAM2 111458Z 01018KT M06/M08 A3044 RMK A01 T10581077  RH  087%=      5-min Rain = 0
KAM2 111459Z 00019KT M06/M08 A3044 RMK A01 T10581076  RH  087%=      5-min Rain = 0
KAM2 111500Z 00026G31KT M06/M08 A3044 RMK A01 T10571075  RH  088%=      5-min Rain = 0
KAM2 111501Z 01024G29KT M06/M08 A3044 RMK A01 T10581075  RH  088%=      5-min Rain = 0
KAM2 111502Z 01022G28KT M06/M08 A3045 RMK A01 T10581075  RH  088%=      5-min Rain = 0
KAM2 111503Z 01023G28KT M06/M08 A3045 RMK A01 T10591075  RH  088%=      5-min Rain = 0
KAM2 111504Z 01022G27KT M06/M08 A3045 RMK A01 T10591075  RH  089%=      5-min Rain = 0
KAM2 111505Z 36018KT M06/M07 A3045 RMK A01 T10591074  RH  089%=      5-min Rain = 0
KAM2 111506Z 36022G27KT M06/M07 A3044 RMK A01 T10591074  RH  089%=      5-min Rain = 0
KAM2 111507Z 00019KT M06/M08 A3045 RMK A01 T10591075  RH  089%=      5-min Rain = 0
KAM2 111508Z 01018G23KT M06/M08 A3045 RMK A01 T10601075  RH  089%=      5-min Rain = 0
KAM2 111509Z 00018KT M06/M08 A3045 RMK A01 T10601075  RH  089%=      5-min Rain = 0
KAM2 111510Z 01020KT M06/M08 A3045 RMK A01 T10601075  RH  089%=      5-min Rain = 0
KAM2 111511Z 00024G29KT M06/M08 A3045 RMK A01 T10611077  RH  089%=      5-min Rain = 0
KAM2 111512Z 01029G34KT M06/M08 A3045 RMK A01 T10621078  RH  088%=      5-min Rain = 0
KAM2 111513Z 01024KT M06/M08 A3045 RMK A01 T10621079  RH  088%=      5-min Rain = 0
KAM2 111514Z 01027G33KT M06/M08 A3045 RMK A01 T10621079  RH  088%=      5-min Rain = 0
KAM2 111515Z 01021G27KT M06/M08 A3045 RMK A01 T10631080  RH  088%=      5-min Rain = 0
KAM2 111516Z 01021KT M06/M08 A3045 RMK A01 T10631080  RH  088%=      5-min Rain = 0
KAM2 111517Z 01020G26KT M06/M08 A3045 RMK A01 T10631079  RH  088%=      5-min Rain = 0
KAM2 111518Z 01018KT M06/M08 A3045 RMK A01 T10631079  RH  088%=      5-min Rain = 0
KAM2 111519Z 01017G23KT M06/M08 A3045 RMK A01 T10631078  RH  088%=      5-min Rain = 0
KAM2 111520Z 00018KT M06/M08 A3046 RMK A01 T10621078  RH  089%=      5-min Rain = 0
KAM2 111521Z 36019KT M06/M08 A3046 RMK A01 T10631079  RH  088%=      5-min Rain = 0
KAM2 111522Z 01017G24KT M06/M08 A3046 RMK A01 T10631079  RH  088%=      5-min Rain = 0
KAM2 111523Z 02023G30KT M06/M08 A3046 RMK A01 T10631079  RH  088%=      5-min Rain = 0
KAM2 111524Z 01023G28KT M06/M08 A3046 RMK A01 T10631080  RH  088%=      5-min Rain = 0
KAM2 111525Z 01020KT M06/M08 A3046 RMK A01 T10631081  RH  087%=      5-min Rain = 0
KAM2 111526Z 00019KT M06/M08 A3046 RMK A01 T10641082  RH  087%=      5-min Rain = 0
KAM2 111527Z 00016G21KT M06/M08 A3046 RMK A01 T10641081  RH  087%=      5-min Rain = 0
KAM2 111528Z 00020G27KT M06/M08 A3046 RMK A01 T10641081  RH  088%=      5-min Rain = 0
KAM2 111529Z 36017KT M06/M08 A3046 RMK A01 T10641082  RH  088%=      5-min Rain = 0
KAM2 111530Z 01018G23KT M07/M08 A3047 RMK A01 T10651082  RH  088%=      5-min Rain = 0
KAM2 111531Z 01020KT M07/M08 A3047 RMK A01 T10651082  RH  088%=      5-min Rain = 0
KAM2 111532Z 01018KT M07/M08 A3047 RMK A01 T10651082  RH  088%=      5-min Rain = 0
KAM2 111533Z 00018KT M07/M08 A3047 RMK A01 T10651082  RH  088%=      5-min Rain = 0
KAM2 111534Z 01024G31KT M07/M08 A3047 RMK A01 T10651082  RH  088%=      5-min Rain = 0
KAM2 111535Z 01023G28KT M07/M08 A3047 RMK A01 T10651084  RH  087%=      5-min Rain = 0
KAM2 111536Z 01025G30KT M07/M09 A3047 RMK A01 T10661085  RH  086%=      5-min Rain = 0
KAM2 111537Z 01022G29KT M07/M09 A3047 RMK A01 T10661086  RH  086%=      5-min Rain = 0
KAM2 111538Z 00024G31KT M07/M09 A3047 RMK A01 T10661087  RH  085%=      5-min Rain = 0
KAM2 111539Z 01024KT M07/M09 A3047 RMK A01 T10661087  RH  085%=      5-min Rain = 0
KAM2 111540Z 01023G31KT M07/M09 A3047 RMK A01 T10661088  RH  084%=      5-min Rain = 0
KAM2 111541Z 01029G34KT M07/M09 A3047 RMK A01 T10661089  RH  084%=      5-min Rain = 0
KAM2 111542Z 01022G29KT M07/M09 A3047 RMK A01 T10661091  RH  083%=      5-min Rain = 0
KAM2 111543Z 01027KT M07/M09 A3047 RMK A01 T10661091  RH  082%=      5-min Rain = 0
KAM2 111544Z 01029KT M07/M09 A3047 RMK A01 T10661092  RH  082%=      5-min Rain = 0
KAM2 111545Z 01027G36KT M07/M09 A3047 RMK A01 T10661093  RH  081%=      5-min Rain = 0
KAM2 111546Z 01023G32KT M07/M09 A3047 RMK A01 T10661093  RH  081%=      5-min Rain = 0
KAM2 111547Z 02022G27KT M07/M09 A3048 RMK A01 T10651092  RH  081%=      5-min Rain = 0
KAM2 111548Z 02023G30KT M07/M09 A3048 RMK A01 T10651092  RH  081%=      5-min Rain = 0
KAM2 111549Z 02021G27KT M07/M09 A3048 RMK A01 T10651093  RH  081%=      5-min Rain = 0
KAM2 111550Z 01020G26KT M07/M09 A3048 RMK A01 T10651092  RH  081%=      5-min Rain = 0
KAM2 111551Z 00021KT M06/M09 A3048 RMK A01 T10641092  RH  081%=      5-min Rain = 0
KAM2 111552Z 00027KT M06/M09 A3048 RMK A01 T10641092  RH  081%=      5-min Rain = 0
KAM2 111553Z 00026G32KT M06/M09 A3048 RMK A01 T10641093  RH  080%=      5-min Rain = 0
KAM2 111554Z 01028G33KT M06/M09 A3048 RMK A01 T10641093  RH  080%=      5-min Rain = 0
KAM2 111555Z 01023KT M06/M09 A3048 RMK A01 T10641094  RH  079%=      5-min Rain = 0
KAM2 111556Z 01022G28KT M06/M09 A3048 RMK A01 T10641093  RH  080%=      5-min Rain = 0
KAM2 111557Z 01019G24KT M06/M09 A3048 RMK A01 T10641093  RH  080%=      5-min Rain = 0
KAM2 111558Z 01025KT M06/M09 A3048 RMK A01 T10631093  RH  080%=      5-min Rain = 0
KAM2 111559Z 02025G30KT M06/M09 A3048 RMK A01 T10631094  RH  079%=      5-min Rain = 0
KAM2 111600Z 01021KT M06/M09 A3048 RMK A01 T10631094  RH  079%=      5-min Rain = 0
KAM2 111601Z 01022G27KT M06/M09 A3048 RMK A01 T10631094  RH  079%=      5-min Rain = 0
KAM2 111602Z 01021KT M06/M09 A3048 RMK A01 T10631093  RH  079%=      5-min Rain = 0
KAM2 111603Z 00021G26KT M06/M09 A3048 RMK A01 T10621092  RH  079%=      5-min Rain = 0
KAM2 111604Z 01021KT M06/M09 A3048 RMK A01 T10621093  RH  079%=      5-min Rain = 0
KAM2 111605Z 01019KT M06/M09 A3048 RMK A01 T10621093  RH  079%=      5-min Rain = 0
KAM2 111606Z 01024KT M06/M09 A3048 RMK A01 T10611094  RH  078%=      5-min Rain = 0
KAM2 111607Z 01027G35KT M06/M10 A3048 RMK A01 T10611095  RH  077%=      5-min Rain = 0
KAM2 111608Z 01025G30KT M06/M10 A3048 RMK A01 T10611097  RH  076%=      5-min Rain = 0
KAM2 111609Z 00021G26KT M06/M10 A3048 RMK A01 T10621098  RH  076%=      5-min Rain = 0
KAM2 111610Z 01022G28KT M06/M10 A3048 RMK A01 T10621097  RH  076%=      5-min Rain = 0
KAM2 111611Z 01023G28KT M06/M10 A3049 RMK A01 T10621096  RH  077%=      5-min Rain = 0
KAM2 111612Z 01022G27KT M06/M10 A3049 RMK A01 T10621097  RH  077%=      5-min Rain = 0
KAM2 111613Z 01023G29KT M06/M10 A3048 RMK A01 T10621097  RH  077%=      5-min Rain = 0
KAM2 111614Z 01022G29KT M06/M10 A3049 RMK A01 T10631097  RH  077%=      5-min Rain = 0
KAM2 111615Z 01022G27KT M06/M10 A3049 RMK A01 T10631097  RH  077%=      5-min Rain = 0
KAM2 111616Z 01017G23KT M06/M10 A3049 RMK A01 T10631096  RH  077%=      5-min Rain = 0
KAM2 111617Z 01022G27KT M06/M10 A3049 RMK A01 T10631095  RH  078%=      5-min Rain = 0
KAM2 111618Z 01021G26KT M06/M10 A3049 RMK A01 T10621095  RH  078%=      5-min Rain = 0
KAM2 111619Z 01020G26KT M06/M10 A3049 RMK A01 T10631095  RH  078%=      5-min Rain = 0
KAM2 111620Z 00020KT M06/M10 A3049 RMK A01 T10631095  RH  078%=      5-min Rain = 0
KAM2 111621Z 01017KT M06/M09 A3049 RMK A01 T10631094  RH  079%=      5-min Rain = 0
KAM2 111622Z 01020G25KT M06/M09 A3049 RMK A01 T10631093  RH  079%=      5-min Rain = 0
KAM2 111623Z 36019G24KT M06/M09 A3049 RMK A01 T10641093  RH  080%=      5-min Rain = 0
KAM2 111624Z 01019KT M06/M09 A3049 RMK A01 T10631092  RH  080%=      5-min Rain = 0
KAM2 111625Z 00020G26KT M06/M09 A3049 RMK A01 T10631092  RH  080%=      5-min Rain = 0
KAM2 111626Z 01017KT M06/M09 A3049 RMK A01 T10631092  RH  080%=      5-min Rain = 0
KAM2 111627Z 01022G28KT M06/M09 A3049 RMK A01 T10621091  RH  080%=      5-min Rain = 0
KAM2 111628Z 00024KT M06/M09 A3049 RMK A01 T10621093  RH  079%=      5-min Rain = 0
KAM2 111629Z 01025G30KT M06/M10 A3049 RMK A01 T10621095  RH  078%=      5-min Rain = 0
KAM2 111630Z 01019G26KT M06/M10 A3049 RMK A01 T10621095  RH  077%=      5-min Rain = 0
KAM2 111631Z 01020KT M06/M10 A3049 RMK A01 T10621095  RH  077%=      5-min Rain = 0
KAM2 111632Z 01021KT M06/M10 A3049 RMK A01 T10621095  RH  077%=      5-min Rain = 0
KAM2 111633Z 01021G26KT M06/M10 A3049 RMK A01 T10621095  RH  077%=      5-min Rain = 0
KAM2 111634Z 36022G30KT M06/M10 A3049 RMK A01 T10621095  RH  077%=      5-min Rain = 0
KAM2 111635Z 00024G29KT M06/M10 A3049 RMK A01 T10621095  RH  077%=      5-min Rain = 0
KAM2 111636Z 00022G28KT M06/M10 A3049 RMK A01 T10621096  RH  077%=      5-min Rain = 0
KAM2 111637Z 00024G29KT M06/M10 A3049 RMK A01 T10611096  RH  076%=      5-min Rain = 0
KAM2 111638Z 01022KT M06/M10 A305 RMK A01 T10621097  RH  076%=      5-min Rain = 0
KAM2 111639Z 01026G31KT M06/M10 A305 RMK A01 T10621097  RH  076%=      5-min Rain = 0
KAM2 111640Z 00021KT M06/M10 A305 RMK A01 T10621098  RH  076%=      5-min Rain = 0
KAM2 111641Z 01023KT M06/M10 A305 RMK A01 T10631098  RH  076%=      5-min Rain = 0
KAM2 111642Z 00017KT M06/M10 A305 RMK A01 T10631097  RH  076%=      5-min Rain = 0
KAM2 111643Z 00017G23KT M06/M10 A305 RMK A01 T10631096  RH  077%=      5-min Rain = 0
KAM2 111644Z 36020KT M06/M10 A305 RMK A01 T10621096  RH  077%=      5-min Rain = 0
KAM2 111645Z 00019G24KT M06/M10 A305 RMK A01 T10621096  RH  077%=      5-min Rain = 0
KAM2 111646Z 00021G26KT M06/M10 A305 RMK A01 T10621095  RH  077%=      5-min Rain = 0
KAM2 111647Z 00020G26KT M06/M10 A305 RMK A01 T10621096  RH  077%=      5-min Rain = 0
KAM2 111648Z 36020G25KT M06/M10 A305 RMK A01 T10631095  RH  078%=      5-min Rain = 0
KAM2 111649Z 35024KT M06/M10 A305 RMK A01 T10631096  RH  078%=      5-min Rain = 0
KAM2 111650Z 35021KT M06/M10 A305 RMK A01 T10641097  RH  077%=      5-min Rain = 0
KAM2 111651Z 35023G29KT M06/M10 A305 RMK A01 T10641097  RH  078%=      5-min Rain = 0
KAM2 111652Z 36021G26KT M07/M10 A305 RMK A01 T10651097  RH  078%=      5-min Rain = 0
KAM2 111653Z 36018KT M06/M10 A305 RMK A01 T10641097  RH  077%=      5-min Rain = 0
KAM2 111654Z 00019G26KT M06/M10 A305 RMK A01 T10641097  RH  077%=      5-min Rain = 0
KAM2 111655Z 00018KT M06/M10 A305 RMK A01 T10631096  RH  077%=      5-min Rain = 0
KAM2 111656Z 36021G30KT M06/M10 A305 RMK A01 T10621095  RH  077%=      5-min Rain = 0
KAM2 111657Z 01023G29KT M06/M10 A3051 RMK A01 T10611097  RH  076%=      5-min Rain = 0
KAM2 111658Z 00024KT M06/M10 A3051 RMK A01 T10621099  RH  075%=      5-min Rain = 0
KAM2 111659Z 36024G29KT M06/M10 A3051 RMK A01 T10621099  RH  075%=      5-min Rain = 0
KAM2 111700Z 00025G31KT M06/M10 A3051 RMK A01 T10621100  RH  074%=      5-min Rain = 0
KAM2 111701Z 35026KT M06/M10 A305 RMK A01 T10621101  RH  074%=      5-min Rain = 0
KAM2 111702Z 00021G30KT M06/M10 A3051 RMK A01 T10621102  RH  073%=      5-min Rain = 0
KAM2 111703Z 00023G28KT M06/M10 A3051 RMK A01 T10621102  RH  074%=      5-min Rain = 0
KAM2 111704Z 36021G27KT M06/M10 A3051 RMK A01 T10621102  RH  073%=      5-min Rain = 0
KAM2 111705Z 36022KT M06/M10 A3051 RMK A01 T10621102  RH  073%=      5-min Rain = 0
KAM2 111706Z 00019G25KT M06/M10 A3051 RMK A01 T10611102  RH  073%=      5-min Rain = 0
KAM2 111707Z 00020KT M06/M10 A3051 RMK A01 T10591100  RH  073%=      5-min Rain = 0
KAM2 111708Z 00025G30KT M06/M10 A3051 RMK A01 T10591101  RH  072%=      5-min Rain = 0
KAM2 111709Z 00022G30KT M06/M10 A3051 RMK A01 T10591102  RH  071%=      5-min Rain = 0
KAM2 111710Z 01022KT M06/M10 A3051 RMK A01 T10591103  RH  071%=      5-min Rain = 0
KAM2 111711Z 00023G29KT M06/M10 A3051 RMK A01 T10591104  RH  070%=      5-min Rain = 0
KAM2 111712Z 01020G25KT M06/M11 A3051 RMK A01 T10591105  RH  070%=      5-min Rain = 0
KAM2 111713Z 01020G26KT M06/M10 A3051 RMK A01 T10581104  RH  070%=      5-min Rain = 0
KAM2 111714Z 01028KT M06/M10 A3051 RMK A01 T10571104  RH  070%=      5-min Rain = 0
KAM2 111715Z 02028G34KT M06/M11 A3051 RMK A01 T10571106  RH  068%=      5-min Rain = 0
KAM2 111716Z 01022G31KT M06/M11 A3051 RMK A01 T10571107  RH  068%=      5-min Rain = 0
KAM2 111717Z 01028G34KT M06/M11 A3051 RMK A01 T10561106  RH  068%=      5-min Rain = 0
KAM2 111718Z 01025G31KT M06/M11 A3051 RMK A01 T10561107  RH  068%=      5-min Rain = 0
KAM2 111719Z 01024G31KT M06/M11 A3051 RMK A01 T10561107  RH  067%=      5-min Rain = 0
KAM2 111720Z 00024G31KT M06/M11 A3051 RMK A01 T10561106  RH  068%=      5-min Rain = 0
KAM2 111721Z 01025G33KT M06/M11 A3051 RMK A01 T10551105  RH  068%=      5-min Rain = 0
KAM2 111722Z 01024KT M06/M11 A3051 RMK A01 T10551105  RH  068%=      5-min Rain = 0
KAM2 111723Z 01021G26KT M05/M10 A3051 RMK A01 T10541104  RH  068%=      5-min Rain = 0
KAM2 111724Z 00022G28KT M05/M10 A3051 RMK A01 T10521102  RH  068%=      5-min Rain = 0
KAM2 111725Z 01024KT M05/M10 A3051 RMK A01 T10511101  RH  068%=      5-min Rain = 0
KAM2 111726Z 00021G30KT M05/M10 A3051 RMK A01 T10501101  RH  068%=      5-min Rain = 0
KAM2 111727Z 00022KT M05/M10 A3051 RMK A01 T10501101  RH  067%=      5-min Rain = 0
KAM2 111728Z 01022KT M05/M10 A3051 RMK A01 T10491100  RH  067%=      5-min Rain = 0
KAM2 111729Z 00025G35KT M05/M10 A3051 RMK A01 T10481100  RH  067%=      5-min Rain = 0
KAM2 111730Z 00026KT M05/M10 A3051 RMK A01 T10491102  RH  066%=      5-min Rain = 0
KAM2 111731Z 00027G32KT M05/M10 A3051 RMK A01 T10491103  RH  066%=      5-min Rain = 0
KAM2 111732Z 00024G29KT M05/M10 A3051 RMK A01 T10501103  RH  066%=      5-min Rain = 0
KAM2 111733Z 00023G30KT M05/M10 A3051 RMK A01 T10491102  RH  067%=      5-min Rain = 0
KAM2 111734Z 01025G30KT M05/M10 A3051 RMK A01 T10481101  RH  067%=      5-min Rain = 0
KAM2 111735Z 01022KT M05/M10 A3051 RMK A01 T10481102  RH  066%=      5-min Rain = 0
KAM2 111736Z 01025G33KT M05/M10 A3051 RMK A01 T10481102  RH  066%=      5-min Rain = 0
KAM2 111737Z 01027G36KT M05/M10 A3051 RMK A01 T10481103  RH  065%=      5-min Rain = 0
KAM2 111738Z 01027KT M05/M10 A3051 RMK A01 T10481103  RH  065%=      5-min Rain = 0
KAM2 111739Z 01026G31KT M05/M10 A3051 RMK A01 T10461101  RH  065%=      5-min Rain = 0
KAM2 111740Z 01025G33KT M05/M10 A3051 RMK A01 T10461101  RH  065%=      5-min Rain = 0
KAM2 111741Z 01028G33KT M05/M10 A3051 RMK A01 T10451101  RH  065%=      5-min Rain = 0
KAM2 111742Z 01024G31KT M05/M10 A3051 RMK A01 T10451102  RH  065%=      5-min Rain = 0
KAM2 111743Z 01020G25KT M04/M10 A3051 RMK A01 T10431098  RH  065%=      5-min Rain = 0
KAM2 111744Z 01025G31KT M04/M10 A3051 RMK A01 T10401097  RH  065%=      5-min Rain = 0
KAM2 111745Z 01027G32KT M04/M10 A3051 RMK A01 T10431101  RH  064%=      5-min Rain = 0
KAM2 111746Z 36025KT M05/M10 A3051 RMK A01 T10461104  RH  064%=      5-min Rain = 0
KAM2 111747Z 01021G27KT M05/M10 A3051 RMK A01 T10471104  RH  065%=      5-min Rain = 0
KAM2 111748Z 01022G29KT M05/M10 A3051 RMK A01 T10481103  RH  065%=      5-min Rain = 0
KAM2 111749Z 01023KT M05/M10 A3051 RMK A01 T10491103  RH  066%=      5-min Rain = 0
KAM2 111750Z 01020KT M05/M10 A3051 RMK A01 T10491103  RH  066%=      5-min Rain = 0
KAM2 111751Z 01022KT M05/M10 A3051 RMK A01 T10501103  RH  066%=      5-min Rain = 0
KAM2 111752Z 01021G26KT M05/M10 A3051 RMK A01 T10511104  RH  067%=      5-min Rain = 0
KAM2 111753Z 01023KT M05/M10 A3051 RMK A01 T10521104  RH  067%=      5-min Rain = 0
KAM2 111754Z 02021KT M05/M10 A3051 RMK A01 T10521104  RH  067%=      5-min Rain = 0
KAM2 111755Z 01022KT M05/M10 A3051 RMK A01 T10531103  RH  068%=      5-min Rain = 0
KAM2 111756Z 01020KT M05/M10 A3051 RMK A01 T10531103  RH  068%=      5-min Rain = 0
KAM2 111757Z 01015KT M05/M10 A3051 RMK A01 T10531102  RH  069%=      5-min Rain = 0
KAM2 111758Z 00016G22KT M05/M10 A3051 RMK A01 T10521099  RH  069%=      5-min Rain = 0
KAM2 111759Z 00024KT M05/M10 A3051 RMK A01 T10511098  RH  070%=      5-min Rain = 0
KAM2 111800Z 01020KT M05/M10 A3051 RMK A01 T10531098  RH  071%=      5-min Rain = 0
KAM2 111801Z 01021KT M05/M10 A3051 RMK A01 T10541097  RH  072%=      5-min Rain = 0
KAM2 111802Z 01020KT M05/M10 A3051 RMK A01 T10541096  RH  072%=      5-min Rain = 0
KAM2 111803Z 00019KT M06/M10 A3051 RMK A01 T10551096  RH  073%=      5-min Rain = 0
KAM2 111804Z 36022G27KT M05/M10 A3051 RMK A01 T10541096  RH  072%=      5-min Rain = 0
KAM2 111805Z 36021G26KT M06/M10 A3051 RMK A01 T10551096  RH  072%=      5-min Rain = 0
KAM2 111806Z 36018G23KT M06/M10 A3051 RMK A01 T10551096  RH  073%=      5-min Rain = 0
KAM2 111807Z 36017G23KT M05/M09 A3051 RMK A01 T10531093  RH  073%=      5-min Rain = 0
KAM2 111808Z 36023KT M05/M09 A3051 RMK A01 T10521093  RH  073%=      5-min Rain = 0
KAM2 111809Z 00019G24KT M05/M10 A3051 RMK A01 T10531096  RH  072%=      5-min Rain = 0
KAM2 111810Z 36016KT M05/M10 A3051 RMK A01 T10531096  RH  072%=      5-min Rain = 0
KAM2 111811Z 01017KT M05/M09 A3051 RMK A01 T10521094  RH  072%=      5-min Rain = 0
KAM2 111812Z 00023G29KT M05/M09 A3051 RMK A01 T10501094  RH  072%=      5-min Rain = 0
KAM2 111813Z 00019KT M05/M10 A3051 RMK A01 T10501095  RH  071%=      5-min Rain = 0
KAM2 111814Z 36018KT M05/M10 A3051 RMK A01 T10501095  RH  071%=      5-min Rain = 0
KAM2 111815Z 36020KT M05/M10 A3051 RMK A01 T10491095  RH  070%=      5-min Rain = 0
KAM2 111816Z 00018KT M05/M10 A3051 RMK A01 T10491096  RH  069%=      5-min Rain = 0
KAM2 111817Z 00020G27KT M05/M10 A3051 RMK A01 T10491097  RH  069%=      5-min Rain = 0
KAM2 111818Z 01020KT M05/M10 A3051 RMK A01 T10481097  RH  069%=      5-min Rain = 0
KAM2 111819Z 01020G25KT M05/M10 A3051 RMK A01 T10471095  RH  069%=      5-min Rain = 0
KAM2 111820Z 01020KT M05/M10 A3051 RMK A01 T10461095  RH  069%=      5-min Rain = 0
KAM2 111821Z 01023KT M05/M10 A3051 RMK A01 T10461096  RH  068%=      5-min Rain = 0
KAM2 111822Z 01022G28KT M05/M10 A3051 RMK A01 T10471098  RH  067%=      5-min Rain = 0
KAM2 111823Z 02024G29KT M05/M10 A3051 RMK A01 T10471098  RH  067%=      5-min Rain = 0
KAM2 111824Z 01021G27KT M05/M10 A3051 RMK A01 T10471099  RH  067%=      5-min Rain = 0
KAM2 111825Z 01022KT M05/M10 A3051 RMK A01 T10461098  RH  067%=      5-min Rain = 0
KAM2 111826Z 00020G25KT M05/M10 A3051 RMK A01 T10461098  RH  067%=      5-min Rain = 0
KAM2 111827Z 00019KT M05/M10 A3051 RMK A01 T10461098  RH  067%=      5-min Rain = 0
KAM2 111828Z 36020KT M05/M10 A3051 RMK A01 T10461098  RH  067%=      5-min Rain = 0
KAM2 111829Z 35016G21KT M05/M10 A3051 RMK A01 T10451098  RH  066%=      5-min Rain = 0
KAM2 111830Z 00023KT M04/M10 A3051 RMK A01 T10441097  RH  067%=      5-min Rain = 0
KAM2 111831Z 35025KT M04/M10 A305 RMK A01 T10441098  RH  066%=      5-min Rain = 0
KAM2 111832Z 01024KT M04/M10 A305 RMK A01 T10441099  RH  066%=      5-min Rain = 0
KAM2 111833Z 01019G24KT M04/M10 A3051 RMK A01 T10441098  RH  066%=      5-min Rain = 0
KAM2 111834Z 00017G22KT M04/M10 A3051 RMK A01 T10431097  RH  066%=      5-min Rain = 0
KAM2 111835Z 00020G28KT M04/M10 A3051 RMK A01 T10411096  RH  065%=      5-min Rain = 0
KAM2 111836Z 01017KT M04/M10 A3051 RMK A01 T10411097  RH  065%=      5-min Rain = 0
KAM2 111837Z 00021G27KT M04/M10 A3051 RMK A01 T10401097  RH  065%=      5-min Rain = 0
KAM2 111838Z 00021G29KT M04/M10 A305 RMK A01 T10391097  RH  064%=      5-min Rain = 0
KAM2 111839Z 00021G26KT M04/M10 A3051 RMK A01 T10371097  RH  063%=      5-min Rain = 0
KAM2 111840Z 01021G28KT M04/M10 A305 RMK A01 T10351097  RH  062%=      5-min Rain = 0
KAM2 111841Z 01019G26KT M03/M10 A305 RMK A01 T10341097  RH  061%=      5-min Rain = 0
KAM2 111842Z 01023G28KT M03/M10 A305 RMK A01 T10321097  RH  061%=      5-min Rain = 0
KAM2 111843Z 01022G28KT M03/M10 A305 RMK A01 T10321098  RH  060%=      5-min Rain = 0
KAM2 111844Z 01019KT M03/M10 A305 RMK A01 T10331099  RH  060%=      5-min Rain = 0
KAM2 111845Z 02019KT M03/M10 A305 RMK A01 T10331099  RH  060%=      5-min Rain = 0
KAM2 111846Z 02019G26KT M03/M10 A305 RMK A01 T10331100  RH  060%=      5-min Rain = 0
KAM2 111847Z 02020G25KT M03/M10 A305 RMK A01 T10331099  RH  060%=      5-min Rain = 0
KAM2 111848Z 01023G28KT M03/M10 A305 RMK A01 T10341100  RH  060%=      5-min Rain = 0
KAM2 111849Z 01025KT M04/M10 A305 RMK A01 T10351102  RH  060%=      5-min Rain = 0
KAM2 111850Z 01021KT M04/M10 A305 RMK A01 T10351102  RH  060%=      5-min Rain = 0
KAM2 111851Z 01024G30KT M04/M10 A305 RMK A01 T10351103  RH  060%=      5-min Rain = 0
KAM2 111852Z 01028G34KT M04/M10 A305 RMK A01 T10351104  RH  059%=      5-min Rain = 0
KAM2 111853Z 01026G31KT M04/M11 A305 RMK A01 T10351105  RH  058%=      5-min Rain = 0
KAM2 111854Z 01025G31KT M04/M11 A305 RMK A01 T10351106  RH  058%=      5-min Rain = 0
KAM2 111855Z 02022G29KT M03/M10 A305 RMK A01 T10341104  RH  058%=      5-min Rain = 0
KAM2 111856Z 02022G29KT M03/M10 A305 RMK A01 T10321103  RH  058%=      5-min Rain = 0
KAM2 111857Z 02026G32KT M03/M10 A305 RMK A01 T10311102  RH  058%=      5-min Rain = 0
KAM2 111858Z 02029KT M03/M10 A305 RMK A01 T10301104  RH  057%=      5-min Rain = 0
KAM2 111859Z 02025G32KT M03/M11 A305 RMK A01 T10311106  RH  056%=      5-min Rain = 0
KAM2 111900Z 02023G29KT M03/M10 A305 RMK A01 T10301104  RH  057%=      5-min Rain = 0
KAM2 111901Z 01025KT M03/M10 A305 RMK A01 T10291104  RH  056%=      5-min Rain = 0
KAM2 111902Z 01021G27KT M03/M10 A305 RMK A01 T10281104  RH  056%=      5-min Rain = 0
KAM2 111903Z 36017G23KT M03/M10 A3049 RMK A01 T10281104  RH  056%=      5-min Rain = 0
KAM2 111904Z 00021G28KT M03/M10 A3049 RMK A01 T10261102  RH  056%=      5-min Rain = 0
KAM2 111905Z 00025G30KT M03/M10 A305 RMK A01 T10251102  RH  055%=      5-min Rain = 0
KAM2 111906Z 01027KT M03/M11 A305 RMK A01 T10281106  RH  055%=      5-min Rain = 0
KAM2 111907Z 01026KT M03/M11 A305 RMK A01 T10311108  RH  055%=      5-min Rain = 0
KAM2 111908Z 00023KT M03/M11 A305 RMK A01 T10321107  RH  056%=      5-min Rain = 0
KAM2 111909Z 36022G29KT M03/M11 A305 RMK A01 T10321106  RH  057%=      5-min Rain = 0
KAM2 111910Z 00022KT M03/M11 A3049 RMK A01 T10311105  RH  057%=      5-min Rain = 0
KAM2 111911Z 01023KT M03/M11 A305 RMK A01 T10311105  RH  057%=      5-min Rain = 0
KAM2 111912Z 01020G28KT M03/M11 A3049 RMK A01 T10321105  RH  057%=      5-min Rain = 0
KAM2 111913Z 01020G26KT M03/M10 A3049 RMK A01 T10301104  RH  057%=      5-min Rain = 0
KAM2 111914Z 35019G25KT M03/M10 A3049 RMK A01 T10301103  RH  057%=      5-min Rain = 0
KAM2 111915Z 35016G22KT M03/M10 A3049 RMK A01 T10291103  RH  056%=      5-min Rain = 0
KAM2 111916Z 00018KT M03/M10 A3049 RMK A01 T10281102  RH  057%=      5-min Rain = 0
KAM2 111917Z 00017G24KT M03/M10 A3049 RMK A01 T10271102  RH  056%=      5-min Rain = 0
KAM2 111918Z 00018G24KT M03/M10 A3049 RMK A01 T10261101  RH  056%=      5-min Rain = 0
KAM2 111919Z 01020G25KT M03/M10 A3049 RMK A01 T10251101  RH  056%=      5-min Rain = 0
KAM2 111920Z 01018G23KT M03/M10 A3049 RMK A01 T10251103  RH  055%=      5-min Rain = 0
KAM2 111921Z 00024G31KT M03/M10 A3049 RMK A01 T10271104  RH  055%=      5-min Rain = 0
KAM2 111922Z 36025G31KT M03/M10 A3049 RMK A01 T10271104  RH  055%=      5-min Rain = 0
KAM2 111923Z 35019KT M03/M11 A3049 RMK A01 T10271105  RH  055%=      5-min Rain = 0
KAM2 111924Z 34020KT M03/M10 A3049 RMK A01 T10251102  RH  055%=      5-min Rain = 0
KAM2 111925Z 34022G27KT M02/M10 A3049 RMK A01 T10241103  RH  055%=      5-min Rain = 0
KAM2 111926Z 36021G26KT M03/M10 A3049 RMK A01 T10251103  RH  055%=      5-min Rain = 0
KAM2 111927Z 01022G27KT M02/M10 A305 RMK A01 T10221101  RH  055%=      5-min Rain = 0
KAM2 111928Z 00023G28KT M02/M10 A3049 RMK A01 T10211102  RH  054%=      5-min Rain = 0
KAM2 111929Z 01020G26KT M02/M10 A305 RMK A01 T10211103  RH  054%=      5-min Rain = 0
KAM2 111930Z 01020KT M02/M10 A305 RMK A01 T10211103  RH  054%=      5-min Rain = 0
KAM2 111931Z 00019G24KT M02/M10 A305 RMK A01 T10211103  RH  054%=      5-min Rain = 0
KAM2 111932Z 35020KT M02/M10 A305 RMK A01 T10201102  RH  053%=      5-min Rain = 0
KAM2 111933Z 00019KT M02/M10 A3049 RMK A01 T10201104  RH  053%=      5-min Rain = 0
KAM2 111934Z 01020KT M02/M10 A305 RMK A01 T10191102  RH  053%=      5-min Rain = 0
KAM2 111935Z 00020KT M02/M10 A305 RMK A01 T10171101  RH  053%=      5-min Rain = 0
KAM2 111936Z 02022G27KT M01/M10 A305 RMK A01 T10141099  RH  052%=      5-min Rain = 0
KAM2 111937Z 01025KT M02/M10 A305 RMK A01 T10151102  RH  052%=      5-min Rain = 0
KAM2 111938Z 01021KT M02/M11 A305 RMK A01 T10201106  RH  052%=      5-min Rain = 0
KAM2 111939Z 02021G26KT M02/M11 A305 RMK A01 T10211105  RH  053%=      5-min Rain = 0
KAM2 111940Z 02022G27KT M02/M11 A3049 RMK A01 T10211105  RH  053%=      5-min Rain = 0
KAM2 111941Z 02025KT M02/M10 A3049 RMK A01 T10211104  RH  053%=      5-min Rain = 0
KAM2 111942Z 36019G24KT M02/M10 A3049 RMK A01 T10201104  RH  053%=      5-min Rain = 0
KAM2 111943Z 00024G29KT M02/M10 A305 RMK A01 T10201103  RH  053%=      5-min Rain = 0
KAM2 111944Z 01028KT M02/M10 A305 RMK A01 T10191104  RH  052%=      5-min Rain = 0
KAM2 111945Z 01022G29KT M02/M10 A305 RMK A01 T10191104  RH  052%=      5-min Rain = 0
KAM2 111946Z 01020G25KT M02/M10 A305 RMK A01 T10191104  RH  052%=      5-min Rain = 0
KAM2 111947Z 01022KT M02/M10 A305 RMK A01 T10181103  RH  052%=      5-min Rain = 0
KAM2 111948Z 02018G24KT M02/M10 A305 RMK A01 T10171103  RH  052%=      5-min Rain = 0
KAM2 111949Z 01020KT M02/M10 A305 RMK A01 T10151101  RH  052%=      5-min Rain = 0
KAM2 111950Z 01019G24KT M02/M10 A3049 RMK A01 T10151103  RH  051%=      5-min Rain = 0
KAM2 111951Z 01017G23KT M01/M10 A3049 RMK A01 T10131100  RH  052%=      5-min Rain = 0
KAM2 111952Z 01019KT M01/M10 A3049 RMK A01 T10071095  RH  051%=      5-min Rain = 0
KAM2 111953Z 00022KT M01/M10 A3049 RMK A01 T10081100  RH  050%=      5-min Rain = 0
KAM2 111954Z 00020KT M01/M11 A3049 RMK A01 T10141107  RH  049%=      5-min Rain = 0
KAM2 111955Z 00021KT M02/M11 A3049 RMK A01 T10161106  RH  050%=      5-min Rain = 0
KAM2 111956Z 01020G28KT M02/M10 A3049 RMK A01 T10161104  RH  051%=      5-min Rain = 0
KAM2 111957Z 00025KT M02/M10 A3049 RMK A01 T10151103  RH  051%=      5-min Rain = 0
KAM2 111958Z 01020G27KT M02/M10 A3049 RMK A01 T10151103  RH  051%=      5-min Rain = 0
KAM2 111959Z 01022KT M01/M10 A3049 RMK A01 T10131101  RH  051%=      5-min Rain = 0
KAM2 112000Z 01023KT M01/M10 A3049 RMK A01 T10141104  RH  050%=      5-min Rain = 0
KAM2 112001Z 00020G26KT M02/M11 A3049 RMK A01 T10171107  RH  050%=      5-min Rain = 0
KAM2 112002Z 36027KT M02/M10 A3049 RMK A01 T10151103  RH  051%=      5-min Rain = 0
KAM2 112003Z 01025G30KT M01/M10 A3049 RMK A01 T10131104  RH  050%=      5-min Rain = 0
KAM2 112004Z 01020G26KT M01/M10 A3049 RMK A01 T10121103  RH  050%=      5-min Rain = 0
KAM2 112005Z 00021G26KT M01/M10 A3049 RMK A01 T10101101  RH  050%=      5-min Rain = 0
KAM2 112006Z 00019G24KT M01/M10 A3049 RMK A01 T10101104  RH  049%=      5-min Rain = 0
KAM2 112007Z 00019G25KT M01/M10 A3049 RMK A01 T10071100  RH  049%=      5-min Rain = 0
KAM2 112008Z 36023G29KT M00/M10 A3049 RMK A01 T10041099  RH  049%=      5-min Rain = 0
KAM2 112009Z 00024G30KT M01/M10 A3049 RMK A01 T10051102  RH  048%=      5-min Rain = 0
KAM2 112010Z 01021G26KT M01/M10 A3049 RMK A01 T10071104  RH  048%=      5-min Rain = 0
KAM2 112011Z 35020G26KT M01/M11 A3049 RMK A01 T10081105  RH  048%=      5-min Rain = 0
KAM2 112012Z 00023KT M01/M10 A3049 RMK A01 T10091104  RH  048%=      5-min Rain = 0
KAM2 112013Z 00022KT M01/M10 A3049 RMK A01 T10081103  RH  049%=      5-min Rain = 0
KAM2 112014Z 01023KT M01/M10 A3049 RMK A01 T10061102  RH  048%=      5-min Rain = 0
KAM2 112015Z 02021G27KT M01/M10 A3049 RMK A01 T10061104  RH  048%=      5-min Rain = 0
KAM2 112016Z 01024KT M01/M10 A3049 RMK A01 T10071104  RH  048%=      5-min Rain = 0
KAM2 112017Z 01024G29KT M01/M11 A3049 RMK A01 T10091106  RH  048%=      5-min Rain = 0
KAM2 112018Z 02021G26KT M01/M11 A3049 RMK A01 T10131108  RH  049%=      5-min Rain = 0
KAM2 112019Z 00022KT M01/M11 A3049 RMK A01 T10141106  RH  050%=      5-min Rain = 0
KAM2 112020Z 36020KT M01/M11 A3049 RMK A01 T10141105  RH  050%=      5-min Rain = 0
KAM2 112021Z 01016KT M01/M10 A3049 RMK A01 T10131104  RH  050%=      5-min Rain = 0
KAM2 112022Z 01018G23KT M01/M10 A3049 RMK A01 T10081100  RH  050%=      5-min Rain = 0
KAM2 112023Z 02020KT M01/M10 A3049 RMK A01 T10091103  RH  049%=      5-min Rain = 0
KAM2 112024Z 02025KT M01/M11 A3049 RMK A01 T10121106  RH  049%=      5-min Rain = 0
KAM2 112025Z 01021G28KT M01/M11 A3049 RMK A01 T10141106  RH  050%=      5-min Rain = 0
KAM2 112026Z 01022KT M02/M11 A3049 RMK A01 T10151106  RH  050%=      5-min Rain = 0
KAM2 112027Z 02019G24KT M02/M11 A3049 RMK A01 T10151105  RH  050%=      5-min Rain = 0
KAM2 112028Z 00018G24KT M01/M10 A3049 RMK A01 T10111101  RH  051%=      5-min Rain = 0
KAM2 112029Z 36020KT M01/M10 A3049 RMK A01 T10071099  RH  050%=      5-min Rain = 0
KAM2 112030Z 35020G25KT M01/M10 A3049 RMK A01 T10071102  RH  049%=      5-min Rain = 0
KAM2 112031Z 35020G25KT M01/M10 A3049 RMK A01 T10081103  RH  049%=      5-min Rain = 0
KAM2 112032Z 00020G25KT M01/M10 A3049 RMK A01 T10101104  RH  049%=      5-min Rain = 0
KAM2 112033Z 00020KT M01/M11 A3049 RMK A01 T10111105  RH  049%=      5-min Rain = 0
KAM2 112034Z 00020G26KT M01/M10 A3049 RMK A01 T10101104  RH  049%=      5-min Rain = 0
KAM2 112035Z 35019G25KT M01/M10 A3049 RMK A01 T10091103  RH  049%=      5-min Rain = 0
KAM2 112036Z 35019KT M01/M10 A3049 RMK A01 T10081103  RH  048%=      5-min Rain = 0
KAM2 112037Z 00017G22KT M01/M10 A3049 RMK A01 T10071102  RH  049%=      5-min Rain = 0
KAM2 112038Z 02022G30KT M01/M10 A3049 RMK A01 T10051102  RH  048%=      5-min Rain = 0
KAM2 112039Z 01022G29KT M01/M11 A3049 RMK A01 T10081105  RH  047%=      5-min Rain = 0
KAM2 112040Z 01021G28KT M01/M11 A3049 RMK A01 T10091106  RH  048%=      5-min Rain = 0
KAM2 112041Z 00017G22KT M01/M11 A3049 RMK A01 T10091106  RH  048%=      5-min Rain = 0
KAM2 112042Z 00020G25KT M01/M10 A3049 RMK A01 T10071104  RH  048%=      5-min Rain = 0
KAM2 112043Z 01017KT M01/M11 A3049 RMK A01 T10071105  RH  047%=      5-min Rain = 0
KAM2 112044Z 36020G25KT M00/M10 A3049 RMK A01 T10041102  RH  047%=      5-min Rain = 0
KAM2 112045Z 01023KT M00/M11 A3049 RMK A01 T10041105  RH  046%=      5-min Rain = 0
KAM2 112046Z 01018G23KT M01/M11 A3049 RMK A01 T10061108  RH  046%=      5-min Rain = 0
KAM2 112047Z 01018G25KT M00/M10 A3049 RMK A01 T10041104  RH  047%=      5-min Rain = 0
KAM2 112048Z 01026KT M00/M10 A3049 RMK A01 T10011102  RH  047%=      5-min Rain = 0
KAM2 112049Z 02021KT M01/M11 A3049 RMK A01 T10051106  RH  046%=      5-min Rain = 0
KAM2 112050Z 02023KT M01/M11 A3049 RMK A01 T10061107  RH  046%=      5-min Rain = 0
KAM2 112051Z 01025G31KT M01/M11 A3049 RMK A01 T10081109  RH  047%=      5-min Rain = 0
KAM2 112052Z 00022KT M01/M11 A3049 RMK A01 T10111111  RH  047%=      5-min Rain = 0
KAM2 112053Z 00019G25KT M01/M11 A3049 RMK A01 T10111110  RH  047%=      5-min Rain = 0
KAM2 112054Z 01025G30KT M01/M11 A3049 RMK A01 T10101109  RH  047%=      5-min Rain = 0
KAM2 112055Z 01020G29KT M01/M11 A3049 RMK A01 T10101110  RH  046%=      5-min Rain = 0
KAM2 112056Z 00023KT M01/M11 A3049 RMK A01 T10091110  RH  046%=      5-min Rain = 0
KAM2 112057Z 36019G26KT M01/M11 A3049 RMK A01 T10101111  RH  046%=      5-min Rain = 0
KAM2 112058Z 01019KT M01/M11 A3049 RMK A01 T10091109  RH  047%=      5-min Rain = 0
KAM2 112059Z 01019G24KT M01/M11 A3049 RMK A01 T10071109  RH  046%=      5-min Rain = 0
KAM2 112100Z 01019G27KT M01/M11 A3049 RMK A01 T10071109  RH  046%=      5-min Rain = 0
KAM2 112101Z 01022KT M01/M11 A3049 RMK A01 T10081109  RH  046%=      5-min Rain = 0
KAM2 112102Z 01022KT M01/M11 A3049 RMK A01 T10091110  RH  046%=      5-min Rain = 0
KAM2 112103Z 00020G25KT M01/M11 A3049 RMK A01 T10091111  RH  046%=      5-min Rain = 0
KAM2 112104Z 01021KT M01/M11 A3049 RMK A01 T10091111  RH  046%=      5-min Rain = 0
KAM2 112105Z 01024KT M01/M11 A3049 RMK A01 T10111112  RH  046%=      5-min Rain = 0
KAM2 112106Z 01022KT M01/M11 A3049 RMK A01 T10131114  RH  046%=      5-min Rain = 0
KAM2 112107Z 01018KT M01/M11 A3049 RMK A01 T10121112  RH  046%=      5-min Rain = 0
KAM2 112108Z 01020KT M01/M11 A3049 RMK A01 T10111112  RH  046%=      5-min Rain = 0
KAM2 112109Z 01019KT M01/M11 A3049 RMK A01 T10121112  RH  046%=      5-min Rain = 0
KAM2 112110Z 01021G26KT M01/M11 A3049 RMK A01 T10111112  RH  046%=      5-min Rain = 0
KAM2 112111Z 00019G26KT M01/M11 A3049 RMK A01 T10101111  RH  046%=      5-min Rain = 0
KAM2 112112Z 36019G25KT M01/M11 A3049 RMK A01 T10101112  RH  046%=      5-min Rain = 0
KAM2 112113Z 35019G24KT M01/M11 A3049 RMK A01 T10111114  RH  045%=      5-min Rain = 0
KAM2 112114Z 00017KT M01/M12 A3049 RMK A01 T10111115  RH  045%=      5-min Rain = 0
KAM2 112115Z 00020G28KT M01/M11 A3049 RMK A01 T10111114  RH  045%=      5-min Rain = 0
KAM2 112116Z 00026KT M01/M12 A305 RMK A01 T10111117  RH  044%=      5-min Rain = 0
KAM2 112117Z 00023KT M01/M12 A305 RMK A01 T10141121  RH  044%=      5-min Rain = 0
KAM2 112118Z 01020G26KT M02/M12 A305 RMK A01 T10151122  RH  044%=      5-min Rain = 0
KAM2 112119Z 01021KT M01/M12 A305 RMK A01 T10141119  RH  045%=      5-min Rain = 0
KAM2 112120Z 01024G30KT M01/M12 A305 RMK A01 T10131118  RH  044%=      5-min Rain = 0
KAM2 112121Z 01021G26KT M01/M12 A305 RMK A01 T10131121  RH  044%=      5-min Rain = 0
KAM2 112122Z 00019G26KT M02/M12 A305 RMK A01 T10161123  RH  044%=      5-min Rain = 0
KAM2 112123Z 01020G25KT M02/M12 A305 RMK A01 T10161123  RH  044%=      5-min Rain = 0
KAM2 112124Z 36022G29KT M02/M12 A305 RMK A01 T10161124  RH  044%=      5-min Rain = 0
KAM2 112125Z 00024KT M02/M12 A305 RMK A01 T10161124  RH  044%=      5-min Rain = 0
KAM2 112126Z 01019G24KT M02/M13 A305 RMK A01 T10171125  RH  044%=      5-min Rain = 0
KAM2 112127Z 00021G26KT M02/M13 A305 RMK A01 T10181125  RH  044%=      5-min Rain = 0
KAM2 112128Z 36020KT M02/M13 A305 RMK A01 T10181126  RH  044%=      5-min Rain = 0
KAM2 112129Z 01020KT M02/M13 A305 RMK A01 T10191126  RH  044%=      5-min Rain = 0
KAM2 112130Z 02018KT M02/M13 A305 RMK A01 T10171125  RH  044%=      5-min Rain = 0
KAM2 112131Z 02016KT M02/M12 A305 RMK A01 T10161124  RH  044%=      5-min Rain = 0
KAM2 112132Z 01020G25KT M02/M12 A305 RMK A01 T10151123  RH  044%=      5-min Rain = 0
KAM2 112133Z 01019KT M02/M13 A305 RMK A01 T10151125  RH  043%=      5-min Rain = 0
KAM2 112134Z 01022KT M02/M13 A305 RMK A01 T10151126  RH  042%=      5-min Rain = 0
KAM2 112135Z 01020KT M02/M13 A305 RMK A01 T10151127  RH  042%=      5-min Rain = 0
KAM2 112136Z 01019KT M02/M13 A305 RMK A01 T10151127  RH  042%=      5-min Rain = 0
KAM2 112137Z 01020KT M01/M12 A305 RMK A01 T10121124  RH  042%=      5-min Rain = 0
KAM2 112138Z 01022KT M01/M13 A305 RMK A01 T10121126  RH  042%=      5-min Rain = 0
KAM2 112139Z 00020G26KT M02/M13 A305 RMK A01 T10151129  RH  042%=      5-min Rain = 0
KAM2 112140Z 00020KT M02/M13 A305 RMK A01 T10181131  RH  042%=      5-min Rain = 0
KAM2 112141Z 36017G23KT M02/M13 A305 RMK A01 T10181130  RH  042%=      5-min Rain = 0
KAM2 112142Z 00020KT M02/M13 A305 RMK A01 T10161128  RH  042%=      5-min Rain = 0
KAM2 112143Z 35023KT M02/M13 A305 RMK A01 T10151130  RH  041%=      5-min Rain = 0
KAM2 112144Z 36023KT M02/M13 A3051 RMK A01 T10171133  RH  041%=      5-min Rain = 0
KAM2 112145Z 36023G28KT M02/M13 A3051 RMK A01 T10181133  RH  041%=      5-min Rain = 0
KAM2 112146Z 00023KT M02/M13 A3051 RMK A01 T10181134  RH  041%=      5-min Rain = 0
KAM2 112147Z 36017KT M02/M13 A3051 RMK A01 T10181134  RH  041%=      5-min Rain = 0
KAM2 112148Z 00015KT M02/M13 A3051 RMK A01 T10171133  RH  041%=      5-min Rain = 0
KAM2 112149Z 36017G23KT M02/M13 A3051 RMK A01 T10171132  RH  041%=      5-min Rain = 0
KAM2 112150Z 01017KT M02/M13 A3051 RMK A01 T10161133  RH  041%=      5-min Rain = 0
KAM2 112151Z 02014G21KT M02/M13 A3051 RMK A01 T10161132  RH  041%=      5-min Rain = 0
KAM2 112152Z 02015KT M01/M13 A3051 RMK A01 T10141130  RH  041%=      5-min Rain = 0
KAM2 112153Z 02018G25KT M01/M13 A3051 RMK A01 T10131130  RH  041%=      5-min Rain = 0
KAM2 112154Z 02018KT M01/M13 A3051 RMK A01 T10141132  RH  040%=      5-min Rain = 0
KAM2 112155Z 00018KT M02/M13 A3051 RMK A01 T10151132  RH  040%=      5-min Rain = 0
KAM2 112156Z 00020KT M02/M13 A3051 RMK A01 T10151132  RH  040%=      5-min Rain = 0
KAM2 112157Z 00020G29KT M02/M13 A3051 RMK A01 T10151132  RH  041%=      5-min Rain = 0
KAM2 112158Z 01025G30KT M02/M13 A3051 RMK A01 T10161132  RH  041%=      5-min Rain = 0
KAM2 112159Z 01019G24KT M02/M13 A3051 RMK A01 T10171132  RH  041%=      5-min Rain = 0
KAM2 112200Z 01016G21KT M02/M13 A3051 RMK A01 T10171130  RH  042%=      5-min Rain = 0
KAM2 112201Z 00020G26KT M02/M13 A3051 RMK A01 T10151129  RH  042%=      5-min Rain = 0
KAM2 112202Z 01022G27KT M01/M13 A3051 RMK A01 T10141129  RH  041%=      5-min Rain = 0
KAM2 112203Z 01020G25KT M02/M13 A3051 RMK A01 T10151130  RH  041%=      5-min Rain = 0
KAM2 112204Z 01020KT M02/M13 A3051 RMK A01 T10161130  RH  042%=      5-min Rain = 0
KAM2 112205Z 01021KT M02/M13 A3051 RMK A01 T10161129  RH  042%=      5-min Rain = 0
KAM2 112206Z 02020KT M02/M13 A3051 RMK A01 T10171131  RH  042%=      5-min Rain = 0
KAM2 112207Z 02020KT M02/M13 A3051 RMK A01 T10181131  RH  042%=      5-min Rain = 0
KAM2 112208Z 02021KT M02/M13 A3051 RMK A01 T10181130  RH  042%=      5-min Rain = 0
KAM2 112209Z 01020KT M02/M13 A3051 RMK A01 T10191130  RH  042%=      5-min Rain = 0
KAM2 112210Z 01018KT M02/M13 A3051 RMK A01 T10191130  RH  043%=      5-min Rain = 0
KAM2 112211Z 00018KT M02/M13 A3051 RMK A01 T10181128  RH  043%=      5-min Rain = 0
KAM2 112212Z 36019KT M02/M13 A3051 RMK A01 T10181128  RH  043%=      5-min Rain = 0
KAM2 112213Z 01019G26KT M02/M13 A3051 RMK A01 T10181129  RH  043%=      5-min Rain = 0
KAM2 112214Z 01020G25KT M02/M13 A3051 RMK A01 T10171128  RH  042%=      5-min Rain = 0
KAM2 112215Z 01019G24KT M02/M13 A3051 RMK A01 T10171128  RH  042%=      5-min Rain = 0
KAM2 112216Z 01022G27KT M02/M13 A3051 RMK A01 T10171130  RH  042%=      5-min Rain = 0
KAM2 112217Z 02019G24KT M02/M13 A3051 RMK A01 T10171131  RH  042%=      5-min Rain = 0
KAM2 112218Z 01019G25KT M02/M13 A3051 RMK A01 T10161129  RH  042%=      5-min Rain = 0
KAM2 112219Z 01022G28KT M02/M13 A3051 RMK A01 T10161130  RH  041%=      5-min Rain = 0
KAM2 112220Z 01019KT M02/M13 A3051 RMK A01 T10171132  RH  041%=      5-min Rain = 0
KAM2 112221Z 01021KT M02/M13 A3051 RMK A01 T10171132  RH  041%=      5-min Rain = 0
KAM2 112222Z 01019G25KT M02/M13 A3051 RMK A01 T10181133  RH  041%=      5-min Rain = 0
KAM2 112223Z 01021G26KT M02/M13 A3051 RMK A01 T10181133  RH  041%=      5-min Rain = 0
KAM2 112224Z 01020KT M02/M13 A3051 RMK A01 T10191134  RH  041%=      5-min Rain = 0
KAM2 112225Z 01019KT M02/M13 A3051 RMK A01 T10191134  RH  041%=      5-min Rain = 0
KAM2 112226Z 01017G24KT M02/M13 A3051 RMK A01 T10201134  RH  041%=      5-min Rain = 0
KAM2 112227Z 01018KT M02/M13 A3051 RMK A01 T10201134  RH  041%=      5-min Rain = 0
KAM2 112228Z 00018G24KT M02/M13 A3051 RMK A01 T10201134  RH  041%=      5-min Rain = 0
KAM2 112229Z 00022KT M02/M13 A3051 RMK A01 T10201134  RH  041%=      5-min Rain = 0
KAM2 112230Z 36018G25KT M02/M14 A3051 RMK A01 T10201135  RH  041%=      5-min Rain = 0
KAM2 112231Z 01018G23KT M02/M14 A3051 RMK A01 T10201135  RH  041%=      5-min Rain = 0
KAM2 112232Z 01021KT M02/M14 A3052 RMK A01 T10201135  RH  041%=      5-min Rain = 0
KAM2 112233Z 01019KT M02/M14 A3052 RMK A01 T10201136  RH  041%=      5-min Rain = 0
KAM2 112234Z 01021G26KT M02/M14 A3052 RMK A01 T10201136  RH  041%=      5-min Rain = 0
KAM2 112235Z 00020G25KT M02/M14 A3052 RMK A01 T10201136  RH  040%=      5-min Rain = 0
KAM2 112236Z 01020G25KT M02/M14 A3052 RMK A01 T10201136  RH  041%=      5-min Rain = 0
KAM2 112237Z 01020KT M02/M14 A3052 RMK A01 T10201137  RH  040%=      5-min Rain = 0
KAM2 112238Z 00019KT M02/M14 A3052 RMK A01 T10211137  RH  040%=      5-min Rain = 0
KAM2 112239Z 01018KT M02/M14 A3052 RMK A01 T10211137  RH  041%=      5-min Rain = 0
KAM2 112240Z 01017KT M02/M14 A3052 RMK A01 T10211137  RH  041%=      5-min Rain = 0
KAM2 112241Z 01018KT M02/M14 A3052 RMK A01 T10211137  RH  041%=      5-min Rain = 0
KAM2 112242Z 02020KT M02/M14 A3052 RMK A01 T10211137  RH  040%=      5-min Rain = 0
KAM2 112243Z 01019KT M02/M14 A3052 RMK A01 T10211138  RH  040%=      5-min Rain = 0
KAM2 112244Z 02020G25KT M02/M14 A3052 RMK A01 T10201138  RH  040%=      5-min Rain = 0
KAM2 112245Z 01017KT M02/M14 A3052 RMK A01 T10201138  RH  040%=      5-min Rain = 0
KAM2 112246Z 03015G21KT M02/M14 A3052 RMK A01 T10201138  RH  040%=      5-min Rain = 0
KAM2 112247Z 02017G22KT M02/M14 A3052 RMK A01 T10211138  RH  040%=      5-min Rain = 0
KAM2 112248Z 01018G24KT M02/M14 A3052 RMK A01 T10211138  RH  040%=      5-min Rain = 0
KAM2 112249Z 01017KT M02/M14 A3052 RMK A01 T10211138  RH  040%=      5-min Rain = 0
KAM2 112250Z 02016KT M02/M14 A3052 RMK A01 T10201138  RH  040%=      5-min Rain = 0
KAM2 112251Z 01017KT M02/M14 A3052 RMK A01 T10201138  RH  040%=      5-min Rain = 0
KAM2 112252Z 01018KT M02/M14 A3052 RMK A01 T10211138  RH  040%=      5-min Rain = 0
KAM2 112253Z 01015G20KT M02/M14 A3052 RMK A01 T10211139  RH  040%=      5-min Rain = 0
KAM2 112254Z 00015KT M02/M14 A3052 RMK A01 T10221139  RH  040%=      5-min Rain = 0
KAM2 112255Z 36014KT M02/M14 A3052 RMK A01 T10221138  RH  041%=      5-min Rain = 0
KAM2 112256Z 00017KT M02/M14 A3052 RMK A01 T10221138  RH  041%=      5-min Rain = 0
KAM2 112257Z 01017KT M02/M14 A3052 RMK A01 T10221139  RH  040%=      5-min Rain = 0
KAM2 112258Z 01019KT M02/M14 A3052 RMK A01 T10231139  RH  040%=      5-min Rain = 0
KAM2 112259Z 02016KT M02/M14 A3053 RMK A01 T10241140  RH  040%=      5-min Rain = 0
KAM2 112300Z 01013KT M02/M14 A3053 RMK A01 T10241140  RH  041%=      5-min Rain = 0
KAM2 112301Z 00016KT M02/M14 A3053 RMK A01 T10241139  RH  041%=      5-min Rain = 0
KAM2 112302Z 02014KT M03/M14 A3053 RMK A01 T10251140  RH  041%=      5-min Rain = 0
KAM2 112303Z 02016KT M03/M14 A3053 RMK A01 T10251140  RH  041%=      5-min Rain = 0
KAM2 112304Z 02016KT M03/M14 A3053 RMK A01 T10251140  RH  041%=      5-min Rain = 0
KAM2 112305Z 01015G20KT M03/M14 A3053 RMK A01 T10251139  RH  041%=      5-min Rain = 0
KAM2 112306Z 01017KT M03/M14 A3053 RMK A01 T10251139  RH  041%=      5-min Rain = 0
KAM2 112307Z 01016KT M03/M14 A3053 RMK A01 T10261140  RH  041%=      5-min Rain = 0
KAM2 112308Z 01013KT M03/M14 A3053 RMK A01 T10261140  RH  041%=      5-min Rain = 0
KAM2 112309Z 01014KT M03/M14 A3053 RMK A01 T10261139  RH  041%=      5-min Rain = 0
KAM2 112310Z 02015KT M03/M14 A3053 RMK A01 T10251139  RH  041%=      5-min Rain = 0
KAM2 112311Z 01014G19KT M03/M14 A3053 RMK A01 T10261139  RH  041%=      5-min Rain = 0
KAM2 112312Z 01017G23KT M03/M14 A3053 RMK A01 T10261139  RH  041%=      5-min Rain = 0
KAM2 112313Z 01018KT M03/M14 A3053 RMK A01 T10261140  RH  041%=      5-min Rain = 0
KAM2 112314Z 01017G22KT M03/M14 A3053 RMK A01 T10261141  RH  041%=      5-min Rain = 0
KAM2 112315Z 01019KT M03/M14 A3053 RMK A01 T10261141  RH  041%=      5-min Rain = 0
KAM2 112316Z 01015KT M03/M14 A3054 RMK A01 T10261142  RH  041%=      5-min Rain = 0
KAM2 112317Z 01015KT M03/M14 A3054 RMK A01 T10271141  RH  041%=      5-min Rain = 0
KAM2 112318Z 02015KT M03/M14 A3054 RMK A01 T10271142  RH  041%=      5-min Rain = 0
KAM2 112319Z 01015KT M03/M14 A3054 RMK A01 T10271141  RH  041%=      5-min Rain = 0
KAM2 112320Z 02017KT M03/M14 A3054 RMK A01 T10271142  RH  041%=      5-min Rain = 0
KAM2 112321Z 02014KT M03/M14 A3054 RMK A01 T10281142  RH  041%=      5-min Rain = 0
KAM2 112322Z 01016KT M03/M14 A3054 RMK A01 T10281143  RH  041%=      5-min Rain = 0
KAM2 112323Z 01016KT M03/M14 A3054 RMK A01 T10281143  RH  041%=      5-min Rain = 0
KAM2 112324Z 01015KT M03/M14 A3054 RMK A01 T10281143  RH  041%=      5-min Rain = 0
KAM2 112325Z 01019KT M03/M14 A3054 RMK A01 T10281143  RH  041%=      5-min Rain = 0
KAM2 112326Z 01018KT M03/M14 A3054 RMK A01 T10291144  RH  041%=      5-min Rain = 0
KAM2 112327Z 02015KT M03/M15 A3054 RMK A01 T10291145  RH  041%=      5-min Rain = 0
KAM2 112328Z 01015KT M03/M15 A3054 RMK A01 T10291145  RH  041%=      5-min Rain = 0
KAM2 112329Z 01014KT M03/M15 A3054 RMK A01 T10301145  RH  041%=      5-min Rain = 0
KAM2 112330Z 01017KT M03/M15 A3055 RMK A01 T10301145  RH  041%=      5-min Rain = 0
KAM2 112331Z 01015KT M03/M15 A3055 RMK A01 T10301146  RH  041%=      5-min Rain = 0
KAM2 112332Z 01014KT M03/M15 A3055 RMK A01 T10301146  RH  041%=      5-min Rain = 0
KAM2 112333Z 01011KT M03/M15 A3055 RMK A01 T10311145  RH  041%=      5-min Rain = 0
KAM2 112334Z 01012KT M03/M15 A3055 RMK A01 T10311145  RH  041%=      5-min Rain = 0
KAM2 112335Z 01012KT M03/M14 A3055 RMK A01 T10311144  RH  041%=      5-min Rain = 0
KAM2 112336Z 01014KT M03/M15 A3055 RMK A01 T10321145  RH  041%=      5-min Rain = 0
KAM2 112337Z 02015KT M03/M15 A3055 RMK A01 T10321145  RH  041%=      5-min Rain = 0
KAM2 112338Z 02015KT M03/M15 A3055 RMK A01 T10321146  RH  041%=      5-min Rain = 0
KAM2 112339Z 01018KT M03/M15 A3055 RMK A01 T10321146  RH  041%=      5-min Rain = 0
KAM2 112340Z 01015KT M03/M15 A3055 RMK A01 T10321147  RH  041%=      5-min Rain = 0
KAM2 112341Z 01017KT M03/M15 A3055 RMK A01 T10331147  RH  041%=      5-min Rain = 0
KAM2 112342Z 01017KT M03/M15 A3055 RMK A01 T10331147  RH  041%=      5-min Rain = 0
KAM2 112343Z 01016KT M03/M15 A3055 RMK A01 T10331147  RH  041%=      5-min Rain = 0
KAM2 112344Z 01015KT M03/M15 A3055 RMK A01 T10331147  RH  041%=      5-min Rain = 0
KAM2 112345Z 01013KT M03/M15 A3055 RMK A01 T10331146  RH  041%=      5-min Rain = 0
KAM2 112346Z 01013KT M03/M15 A3055 RMK A01 T10341146  RH  042%=      5-min Rain = 0
KAM2 112347Z 01013KT M04/M15 A3055 RMK A01 T10351146  RH  042%=      5-min Rain = 0
KAM2 112348Z 01014KT M04/M15 A3055 RMK A01 T10351146  RH  042%=      5-min Rain = 0
KAM2 112349Z 01012KT M04/M15 A3055 RMK A01 T10351146  RH  042%=      5-min Rain = 0
KAM2 112350Z 01016KT M04/M15 A3055 RMK A01 T10351146  RH  042%=      5-min Rain = 0
KAM2 112351Z 01014KT M04/M15 A3056 RMK A01 T10361146  RH  042%=      5-min Rain = 0
KAM2 112352Z 01012KT M04/M15 A3056 RMK A01 T10361147  RH  042%=      5-min Rain = 0
KAM2 112353Z 01013KT M04/M15 A3056 RMK A01 T10361146  RH  042%=      5-min Rain = 0
KAM2 112354Z 01013KT M04/M15 A3056 RMK A01 T10351145  RH  042%=      5-min Rain = 0
KAM2 112355Z 01012KT M04/M15 A3056 RMK A01 T10361146  RH  042%=      5-min Rain = 0
KAM2 112356Z 01013KT M04/M15 A3056 RMK A01 T10361146  RH  042%=      5-min Rain = 0
KAM2 112357Z 01012KT M04/M15 A3056 RMK A01 T10361146  RH  042%=      5-min Rain = 0
KAM2 112358Z 01014KT M04/M15 A3056 RMK A01 T10371145  RH  043%=      5-min Rain = 0
KAM2 112359Z 01015KT M04/M15 A3056 RMK A01 T10361145  RH  043%=      5-min Rain = 0
KAM2 120000Z 01012KT M04/M15 A3056 RMK A01 T10371145  RH  043%=      5-min Rain = 0
KAM2 120001Z 01012KT M04/M15 A3056 RMK A01 T10371145  RH  043%=      5-min Rain = 0
KAM2 120002Z 01014KT M04/M15 A3056 RMK A01 T10371145  RH  043%=      5-min Rain = 0
KAM2 120003Z 01012KT M04/M15 A3056 RMK A01 T10371145  RH  043%=      5-min Rain = 0
KAM2 120004Z 01012KT M04/M15 A3056 RMK A01 T10371145  RH  043%=      5-min Rain = 0
KAM2 120005Z 01010KT M04/M15 A3057 RMK A01 T10381145  RH  043%=      5-min Rain = 0
KAM2 120006Z 00010KT M04/M15 A3057 RMK A01 T10381145  RH  043%=      5-min Rain = 0
KAM2 120007Z 01009KT M04/M14 A3057 RMK A01 T10391144  RH  044%=      5-min Rain = 0
KAM2 120008Z 01010KT M04/M14 A3057 RMK A01 T10391144  RH  044%=      5-min Rain = 0
KAM2 120009Z 01010KT M04/M14 A3057 RMK A01 T10401144  RH  044%=      5-min Rain = 0
KAM2 120010Z 01011KT M04/M14 A3057 RMK A01 T10401144  RH  044%=      5-min Rain = 0
KAM2 120011Z 01012KT M04/M14 A3057 RMK A01 T10401144  RH  044%=      5-min Rain = 0
KAM2 120012Z 01009KT M04/M14 A3057 RMK A01 T10401144  RH  044%=      5-min Rain = 0
KAM2 120013Z 00010KT M04/M14 A3057 RMK A01 T10401143  RH  044%=      5-min Rain = 0
KAM2 120014Z 01011KT M04/M14 A3057 RMK A01 T10401144  RH  044%=      5-min Rain = 0
KAM2 120015Z 01010KT M04/M14 A3057 RMK A01 T10401144  RH  044%=      5-min Rain = 0
KAM2 120016Z 01012KT M04/M14 A3057 RMK A01 T10391144  RH  044%=      5-min Rain = 0
KAM2 120017Z 01010KT M04/M14 A3057 RMK A01 T10391143  RH  044%=      5-min Rain = 0
KAM2 120018Z 01011KT M04/M14 A3057 RMK A01 T10391143  RH  044%=      5-min Rain = 0
KAM2 120019Z 01009KT M04/M14 A3057 RMK A01 T10401143  RH  045%=      5-min Rain = 0
KAM2 120020Z 02008KT M04/M14 A3058 RMK A01 T10411143  RH  045%=      5-min Rain = 0
KAM2 120021Z 01009KT M04/M14 A3057 RMK A01 T10411143  RH  045%=      5-min Rain = 0
KAM2 120022Z 01010KT M04/M14 A3057 RMK A01 T10421142  RH  045%=      5-min Rain = 0
KAM2 120023Z 01009KT M04/M14 A3057 RMK A01 T10421142  RH  046%=      5-min Rain = 0
KAM2 120024Z 01010KT M04/M14 A3057 RMK A01 T10421142  RH  046%=      5-min Rain = 0
KAM2 120025Z 01010KT M04/M14 A3058 RMK A01 T10421142  RH  046%=      5-min Rain = 0
KAM2 120026Z 01009KT M04/M14 A3058 RMK A01 T10421142  RH  046%=      5-min Rain = 0
KAM2 120027Z 01009KT M04/M14 A3058 RMK A01 T10421141  RH  046%=      5-min Rain = 0
KAM2 120028Z 01008KT M04/M14 A3058 RMK A01 T10421141  RH  046%=      5-min Rain = 0
KAM2 120029Z 01008KT M04/M14 A3058 RMK A01 T10431141  RH  046%=      5-min Rain = 0
KAM2 120030Z 01006KT M04/M14 A3058 RMK A01 T10431141  RH  047%=      5-min Rain = 0
KAM2 120031Z 01008KT M04/M14 A3058 RMK A01 T10441141  RH  047%=      5-min Rain = 0
KAM2 120032Z 01008KT M05/M14 A3058 RMK A01 T10451140  RH  047%=      5-min Rain = 0
KAM2 120033Z 01009KT M05/M14 A3058 RMK A01 T10451140  RH  048%=      5-min Rain = 0
KAM2 120034Z 01008KT M05/M14 A3058 RMK A01 T10451140  RH  048%=      5-min Rain = 0
KAM2 120035Z 01009KT M05/M14 A3058 RMK A01 T10451140  RH  048%=      5-min Rain = 0
KAM2 120036Z 01009KT M05/M14 A3058 RMK A01 T10451140  RH  048%=      5-min Rain = 0
KAM2 120037Z 01008KT M05/M14 A3058 RMK A01 T10451139  RH  048%=      5-min Rain = 0
KAM2 120038Z 01009KT M05/M14 A3058 RMK A01 T10451139  RH  048%=      5-min Rain = 0
KAM2 120039Z 01008KT M05/M14 A3058 RMK A01 T10451139  RH  048%=      5-min Rain = 0
KAM2 120040Z 01008KT M05/M14 A3058 RMK A01 T10451139  RH  048%=      5-min Rain = 0
KAM2 120041Z 01008KT M05/M14 A3058 RMK A01 T10461139  RH  048%=      5-min Rain = 0
KAM2 120042Z 01008KT M05/M14 A3058 RMK A01 T10461138  RH  049%=      5-min Rain = 0
KAM2 120043Z 01008KT M05/M14 A3059 RMK A01 T10471139  RH  049%=      5-min Rain = 0
KAM2 120044Z 01007KT M05/M14 A3059 RMK A01 T10471138  RH  049%=      5-min Rain = 0
KAM2 120045Z 00007KT M05/M14 A3059 RMK A01 T10481138  RH  049%=      5-min Rain = 0
KAM2 120046Z 00008KT M05/M14 A3059 RMK A01 T10481138  RH  049%=      5-min Rain = 0
KAM2 120047Z 00008KT M05/M14 A3059 RMK A01 T10481138  RH  049%=      5-min Rain = 0
KAM2 120048Z 01008KT M05/M14 A3059 RMK A01 T10481138  RH  049%=      5-min Rain = 0
KAM2 120049Z 01008KT M05/M14 A3059 RMK A01 T10481138  RH  049%=      5-min Rain = 0
KAM2 120050Z 00009KT M05/M14 A3059 RMK A01 T10481138  RH  049%=      5-min Rain = 0
KAM2 120051Z 01009KT M05/M14 A3059 RMK A01 T10481138  RH  050%=      5-min Rain = 0
KAM2 120052Z 00010KT M05/M14 A3058 RMK A01 T10481137  RH  050%=      5-min Rain = 0
KAM2 120053Z 01009KT M05/M14 A3058 RMK A01 T10481137  RH  050%=      5-min Rain = 0
KAM2 120054Z 01009KT M05/M14 A3058 RMK A01 T10481137  RH  050%=      5-min Rain = 0
KAM2 120055Z 01008KT M05/M14 A3058 RMK A01 T10491137  RH  050%=      5-min Rain = 0
KAM2 120056Z 01009KT M05/M14 A3058 RMK A01 T10491136  RH  051%=      5-min Rain = 0
KAM2 120057Z 00008KT M05/M14 A3058 RMK A01 T10501136  RH  051%=      5-min Rain = 0
KAM2 120058Z 01009KT M05/M14 A3058 RMK A01 T10501136  RH  051%=      5-min Rain = 0
KAM2 120059Z 00009KT M05/M14 A3058 RMK A01 T10511136  RH  051%=      5-min Rain = 0
KAM2 120100Z 00009KT M05/M14 A3058 RMK A01 T10501136  RH  051%=      5-min Rain = 0
KAM2 120101Z 00011KT M05/M14 A3059 RMK A01 T10501136  RH  051%=      5-min Rain = 0
KAM2 120102Z 00010KT M05/M14 A3059 RMK A01 T10491136  RH  051%=      5-min Rain = 0
KAM2 120103Z 00009KT M05/M14 A3059 RMK A01 T10491136  RH  051%=      5-min Rain = 0
KAM2 120104Z 00009KT M05/M14 A3059 RMK A01 T10491137  RH  050%=      5-min Rain = 0
KAM2 120105Z 00009KT M05/M14 A3059 RMK A01 T10491137  RH  050%=      5-min Rain = 0
KAM2 120106Z 00009KT M05/M14 A3059 RMK A01 T10491137  RH  050%=      5-min Rain = 0
KAM2 120107Z 00010KT M05/M14 A3059 RMK A01 T10491137  RH  050%=      5-min Rain = 0
KAM2 120108Z 00010KT M05/M14 A3059 RMK A01 T10491137  RH  050%=      5-min Rain = 0
KAM2 120109Z 01010KT M05/M14 A3059 RMK A01 T10481137  RH  050%=      5-min Rain = 0
KAM2 120110Z 00009KT M05/M14 A3059 RMK A01 T10481138  RH  050%=      5-min Rain = 0
KAM2 120111Z 00008KT M05/M14 A3059 RMK A01 T10481137  RH  050%=      5-min Rain = 0
KAM2 120112Z 00010KT M05/M14 A3059 RMK A01 T10481137  RH  050%=      5-min Rain = 0
KAM2 120113Z 00010KT M05/M14 A3059 RMK A01 T10481138  RH  050%=      5-min Rain = 0
KAM2 120114Z 00009KT M05/M14 A3059 RMK A01 T10481138  RH  050%=      5-min Rain = 0
KAM2 120115Z 01010KT M05/M14 A3059 RMK A01 T10481138  RH  050%=      5-min Rain = 0
KAM2 120116Z 00009KT M05/M14 A3059 RMK A01 T10481138  RH  050%=      5-min Rain = 0
KAM2 120117Z 00009KT M05/M14 A3059 RMK A01 T10491137  RH  050%=      5-min Rain = 0
KAM2 120118Z 00010KT M05/M14 A3059 RMK A01 T10491137  RH  050%=      5-min Rain = 0
KAM2 120119Z 00009KT M05/M14 A3059 RMK A01 T10491137  RH  050%=      5-min Rain = 0
KAM2 120120Z 01009KT M05/M14 A3059 RMK A01 T10501137  RH  050%=      5-min Rain = 0
KAM2 120121Z 00010KT M05/M14 A3059 RMK A01 T10501137  RH  050%=      5-min Rain = 0
KAM2 120122Z 01009KT M05/M14 A3059 RMK A01 T10501137  RH  050%=      5-min Rain = 0
KAM2 120123Z 01010KT M05/M14 A3059 RMK A01 T10491137  RH  050%=      5-min Rain = 0
KAM2 120124Z 00010KT M05/M14 A3059 RMK A01 T10491137  RH  050%=      5-min Rain = 0
KAM2 120125Z 00009KT M05/M14 A3059 RMK A01 T10491137  RH  050%=      5-min Rain = 0
KAM2 120126Z 01010KT M05/M14 A3059 RMK A01 T10501137  RH  050%=      5-min Rain = 0
KAM2 120127Z 00008KT M05/M14 A3059 RMK A01 T10501137  RH  050%=      5-min Rain = 0
KAM2 120128Z 01009KT M05/M14 A3059 RMK A01 T10501137  RH  050%=      5-min Rain = 0
KAM2 120129Z 00008KT M05/M14 A3059 RMK A01 T10511138  RH  051%=      5-min Rain = 0
KAM2 120130Z 00009KT M05/M14 A3059 RMK A01 T10521137  RH  051%=      5-min Rain = 0
KAM2 120131Z 00008KT M05/M14 A3059 RMK A01 T10521137  RH  051%=      5-min Rain = 0
KAM2 120132Z 00007KT M05/M14 A3059 RMK A01 T10521137  RH  051%=      5-min Rain = 0
KAM2 120133Z 00008KT M05/M14 A3059 RMK A01 T10531137  RH  052%=      5-min Rain = 0
KAM2 120134Z 00007KT M05/M14 A3059 RMK A01 T10531137  RH  052%=      5-min Rain = 0
KAM2 120135Z 00007KT M05/M14 A3059 RMK A01 T10531137  RH  052%=      5-min Rain = 0
KAM2 120136Z 36007KT M05/M14 A3059 RMK A01 T10531137  RH  052%=      5-min Rain = 0
KAM2 120137Z 00008KT M05/M14 A3059 RMK A01 T10531137  RH  052%=      5-min Rain = 0
KAM2 120138Z 00008KT M05/M14 A3059 RMK A01 T10531137  RH  052%=      5-min Rain = 0
KAM2 120139Z 00008KT M05/M14 A3059 RMK A01 T10541137  RH  052%=      5-min Rain = 0
KAM2 120140Z 36008KT M05/M14 A306 RMK A01 T10541137  RH  052%=      5-min Rain = 0
KAM2 120141Z 00007KT M05/M14 A306 RMK A01 T10531137  RH  052%=      5-min Rain = 0
KAM2 120142Z 36008KT M05/M14 A306 RMK A01 T10531137  RH  052%=      5-min Rain = 0
KAM2 120143Z 36008KT M05/M14 A306 RMK A01 T10541137  RH  052%=      5-min Rain = 0
KAM2 120144Z 00008KT M05/M14 A306 RMK A01 T10541137  RH  052%=      5-min Rain = 0
KAM2 120145Z 36008KT M05/M14 A306 RMK A01 T10541137  RH  052%=      5-min Rain = 0
KAM2 120146Z 36008KT M05/M14 A306 RMK A01 T10531137  RH  052%=      5-min Rain = 0
KAM2 120147Z 00007KT M05/M14 A306 RMK A01 T10541138  RH  052%=      5-min Rain = 0
KAM2 120148Z 36009KT M06/M14 A306 RMK A01 T10551138  RH  052%=      5-min Rain = 0
KAM2 120149Z 00008KT M06/M14 A306 RMK A01 T10551138  RH  052%=      5-min Rain = 0
KAM2 120150Z 00009KT M06/M14 A306 RMK A01 T10551138  RH  052%=      5-min Rain = 0
KAM2 120151Z 36008KT M06/M14 A306 RMK A01 T10551137  RH  052%=      5-min Rain = 0
KAM2 120152Z 36008KT M06/M14 A306 RMK A01 T10551137  RH  052%=      5-min Rain = 0
KAM2 120153Z 36008KT M06/M14 A306 RMK A01 T10561138  RH  052%=      5-min Rain = 0
KAM2 120154Z 00008KT M06/M14 A306 RMK A01 T10561138  RH  053%=      5-min Rain = 0
KAM2 120155Z 36009KT M06/M14 A306 RMK A01 T10561138  RH  053%=      5-min Rain = 0
KAM2 120156Z 01010KT M06/M14 A306 RMK A01 T10561138  RH  053%=      5-min Rain = 0
KAM2 120157Z 00009KT M06/M14 A306 RMK A01 T10551137  RH  052%=      5-min Rain = 0
KAM2 120158Z 00008KT M06/M14 A306 RMK A01 T10551138  RH  052%=      5-min Rain = 0
KAM2 120159Z 00009KT M06/M14 A306 RMK A01 T10551138  RH  052%=      5-min Rain = 0
KAM2 120200Z 36008KT M06/M14 A306 RMK A01 T10551139  RH  052%=      5-min Rain = 0
KAM2 120201Z 01007KT M06/M14 A306 RMK A01 T10551138  RH  052%=      5-min Rain = 0
KAM2 120202Z 00007KT M06/M14 A306 RMK A01 T10551138  RH  052%=      5-min Rain = 0
KAM2 120203Z 36007KT M06/M14 A306 RMK A01 T10561139  RH  052%=      5-min Rain = 0
KAM2 120204Z 00008KT M06/M14 A306 RMK A01 T10571139  RH  052%=      5-min Rain = 0
KAM2 120205Z 00007KT M06/M14 A306 RMK A01 T10571139  RH  052%=      5-min Rain = 0
KAM2 120206Z 01008KT M06/M14 A306 RMK A01 T10571139  RH  053%=      5-min Rain = 0
KAM2 120207Z 00007KT M06/M14 A3061 RMK A01 T10571138  RH  053%=      5-min Rain = 0
KAM2 120208Z 01006KT M06/M14 A3061 RMK A01 T10571138  RH  053%=      5-min Rain = 0
KAM2 120209Z 00006KT M06/M14 A3061 RMK A01 T10581138  RH  053%=      5-min Rain = 0
KAM2 120210Z 01006KT M06/M14 A3061 RMK A01 T10591138  RH  053%=      5-min Rain = 0
KAM2 120211Z 01006KT M06/M14 A3061 RMK A01 T10601138  RH  054%=      5-min Rain = 0
KAM2 120212Z 01005KT M06/M14 A3061 RMK A01 T10601138  RH  054%=      5-min Rain = 0
KAM2 120213Z 01006KT M06/M14 A3061 RMK A01 T10601138  RH  054%=      5-min Rain = 0
KAM2 120214Z 00005KT M06/M14 A3061 RMK A01 T10601138  RH  054%=      5-min Rain = 0
KAM2 120215Z 36006KT M06/M14 A3061 RMK A01 T10611138  RH  054%=      5-min Rain = 0
KAM2 120216Z 00006KT M06/M14 A3061 RMK A01 T10611138  RH  055%=      5-min Rain = 0
KAM2 120217Z 36006KT M06/M14 A3061 RMK A01 T10611138  RH  055%=      5-min Rain = 0
KAM2 120218Z 00006KT M06/M14 A3061 RMK A01 T10621138  RH  055%=      5-min Rain = 0
KAM2 120219Z 00006KT M06/M14 A306 RMK A01 T10621138  RH  055%=      5-min Rain = 0
KAM2 120220Z 00006KT M06/M14 A306 RMK A01 T10631138  RH  055%=      5-min Rain = 0
KAM2 120221Z 00006KT M06/M14 A3061 RMK A01 T10641138  RH  056%=      5-min Rain = 0
KAM2 120222Z 00006KT M06/M14 A3061 RMK A01 T10641138  RH  056%=      5-min Rain = 0
KAM2 120223Z 00006KT M06/M14 A3061 RMK A01 T10641137  RH  056%=      5-min Rain = 0
KAM2 120224Z 36005KT M07/M14 A3061 RMK A01 T10651138  RH  056%=      5-min Rain = 0
KAM2 120225Z 36005KT M07/M14 A3061 RMK A01 T10651137  RH  056%=      5-min Rain = 0
KAM2 120226Z 00005KT M07/M14 A3061 RMK A01 T10651137  RH  057%=      5-min Rain = 0
KAM2 120227Z 00005KT M07/M14 A3061 RMK A01 T10651137  RH  057%=      5-min Rain = 0
KAM2 120228Z 00005KT M07/M14 A3061 RMK A01 T10661137  RH  057%=      5-min Rain = 0
KAM2 120229Z 00005KT M07/M14 A3061 RMK A01 T10671137  RH  057%=      5-min Rain = 0
KAM2 120230Z 00005KT M07/M14 A3061 RMK A01 T10671137  RH  058%=      5-min Rain = 0
KAM2 120231Z 00005KT M07/M14 A3061 RMK A01 T10681137  RH  058%=      5-min Rain = 0
KAM2 120232Z 01005KT M07/M14 A3061 RMK A01 T10681136  RH  058%=      5-min Rain = 0
KAM2 120233Z 01005KT M07/M14 A3061 RMK A01 T10681136  RH  059%=      5-min Rain = 0
KAM2 120234Z 01005KT M07/M14 A3061 RMK A01 T10691136  RH  059%=      5-min Rain = 0
KAM2 120235Z 01005KT M07/M14 A3061 RMK A01 T10701136  RH  059%=      5-min Rain = 0
KAM2 120236Z 01005KT M07/M14 A3061 RMK A01 T10711136  RH  060%=      5-min Rain = 0
KAM2 120237Z 01005KT M07/M14 A3061 RMK A01 T10711136  RH  060%=      5-min Rain = 0
KAM2 120238Z 01005KT M07/M14 A3061 RMK A01 T10721135  RH  060%=      5-min Rain = 0
KAM2 120239Z 01005KT M07/M14 A3061 RMK A01 T10731135  RH  061%=      5-min Rain = 0
KAM2 120240Z 01005KT M07/M14 A3061 RMK A01 T10731135  RH  061%=      5-min Rain = 0
KAM2 120241Z 02004KT M07/M14 A3061 RMK A01 T10741135  RH  061%=      5-min Rain = 0
KAM2 120242Z 01004KT M07/M14 A3062 RMK A01 T10741135  RH  062%=      5-min Rain = 0
KAM2 120243Z 02004KT M07/M13 A3062 RMK A01 T10741134  RH  062%=      5-min Rain = 0
KAM2 120244Z 01004KT M08/M13 A3062 RMK A01 T10751134  RH  063%=      5-min Rain = 0
KAM2 120245Z 01004KT M08/M13 A3062 RMK A01 T10761134  RH  063%=      5-min Rain = 0
KAM2 120246Z 01003KT M08/M13 A3062 RMK A01 T10761133  RH  064%=      5-min Rain = 0
KAM2 120247Z 02003KT M08/M13 A3062 RMK A01 T10761133  RH  064%=      5-min Rain = 0
KAM2 120248Z 02004KT M08/M13 A3062 RMK A01 T10761133  RH  064%=      5-min Rain = 0
KAM2 120249Z 02004KT M08/M13 A3062 RMK A01 T10761133  RH  064%=      5-min Rain = 0
KAM2 120250Z 03005KT M08/M13 A3062 RMK A01 T10761133  RH  063%=      5-min Rain = 0
KAM2 120251Z 03005KT M08/M13 A3061 RMK A01 T10761134  RH  064%=      5-min Rain = 0
KAM2 120252Z 02005KT M08/M13 A3061 RMK A01 T10781134  RH  064%=      5-min Rain = 0
KAM2 120253Z 02005KT M08/M13 A3061 RMK A01 T10781134  RH  065%=      5-min Rain = 0
KAM2 120254Z 02005KT M08/M13 A3062 RMK A01 T10791134  RH  065%=      5-min Rain = 0
KAM2 120255Z 02005KT M08/M13 A3062 RMK A01 T10811134  RH  065%=      5-min Rain = 0
KAM2 120256Z 02005KT M08/M13 A3062 RMK A01 T10821134  RH  066%=      5-min Rain = 0
KAM2 120257Z 01005KT M08/M13 A3062 RMK A01 T10831133  RH  067%=      5-min Rain = 0
KAM2 120258Z 02005KT M08/M13 A3061 RMK A01 T10831133  RH  067%=      5-min Rain = 0
KAM2 120259Z 02005KT M08/M13 A3061 RMK A01 T10831133  RH  067%=      5-min Rain = 0
KAM2 120300Z 02005KT M08/M13 A3061 RMK A01 T10831133  RH  068%=      5-min Rain = 0
KAM2 120301Z 02005KT M08/M13 A3061 RMK A01 T10831132  RH  067%=      5-min Rain = 0
KAM2 120302Z 02005KT M08/M13 A3061 RMK A01 T10831132  RH  067%=      5-min Rain = 0
KAM2 120303Z 02005KT M08/M13 A3062 RMK A01 T10831133  RH  068%=      5-min Rain = 0
KAM2 120304Z 01005KT M08/M13 A3062 RMK A01 T10841133  RH  068%=      5-min Rain = 0
KAM2 120305Z 02005KT M08/M13 A3062 RMK A01 T10841132  RH  068%=      5-min Rain = 0
KAM2 120306Z 02005KT M09/M13 A3062 RMK A01 T10851131  RH  069%=      5-min Rain = 0
KAM2 120307Z 02005KT M09/M13 A3062 RMK A01 T10851131  RH  069%=      5-min Rain = 0
KAM2 120308Z 01005KT M09/M13 A3061 RMK A01 T10851130  RH  070%=      5-min Rain = 0
KAM2 120309Z 01005KT M08/M13 A3061 RMK A01 T10841130  RH  070%=      5-min Rain = 0
KAM2 120310Z 01004KT M09/M13 A3061 RMK A01 T10851130  RH  070%=      5-min Rain = 0
KAM2 120311Z 01004KT M09/M13 A3061 RMK A01 T10861130  RH  071%=      5-min Rain = 0
KAM2 120312Z 01004KT M09/M13 A3062 RMK A01 T10871130  RH  071%=      5-min Rain = 0
KAM2 120313Z 01004KT M09/M13 A3062 RMK A01 T10861130  RH  071%=      5-min Rain = 0
KAM2 120314Z 01003KT M09/M13 A3062 RMK A01 T10871130  RH  071%=      5-min Rain = 0
KAM2 120315Z 01003KT M09/M13 A3062 RMK A01 T10871130  RH  071%=      5-min Rain = 0
KAM2 120316Z 01003KT M09/M13 A3062 RMK A01 T10871130  RH  071%=      5-min Rain = 0
KAM2 120317Z 02003KT M09/M13 A3062 RMK A01 T10881130  RH  071%=      5-min Rain = 0
KAM2 120318Z 02003KT M09/M13 A3062 RMK A01 T10881130  RH  072%=      5-min Rain = 0
KAM2 120319Z 02003KT M09/M13 A3062 RMK A01 T10881130  RH  072%=      5-min Rain = 0
KAM2 120320Z 02003KT M09/M13 A3062 RMK A01 T10881129  RH  072%=      5-min Rain = 0
KAM2 120321Z 02003KT M09/M13 A3062 RMK A01 T10881129  RH  072%=      5-min Rain = 0
KAM2 120322Z 02004KT M09/M13 A3061 RMK A01 T10881129  RH  072%=      5-min Rain = 0
KAM2 120323Z 02005KT M09/M13 A3061 RMK A01 T10881130  RH  072%=      5-min Rain = 0
KAM2 120324Z 02005KT M09/M13 A3061 RMK A01 T10871130  RH  071%=      5-min Rain = 0
KAM2 120325Z 02006KT M09/M13 A3062 RMK A01 T10851130  RH  070%=      5-min Rain = 0
KAM2 120326Z 02006KT M08/M13 A3062 RMK A01 T10841131  RH  069%=      5-min Rain = 0
KAM2 120327Z 02006KT M08/M13 A3062 RMK A01 T10831131  RH  068%=      5-min Rain = 0
KAM2 120328Z 02006KT M08/M13 A3062 RMK A01 T10821132  RH  067%=      5-min Rain = 0
KAM2 120329Z 02005KT M08/M13 A3062 RMK A01 T10821132  RH  067%=      5-min Rain = 0
KAM2 120330Z 02005KT M08/M13 A3062 RMK A01 T10811133  RH  066%=      5-min Rain = 0
KAM2 120331Z 02005KT M08/M13 A3062 RMK A01 T10801133  RH  066%=      5-min Rain = 0
KAM2 120332Z 02004KT M08/M13 A3062 RMK A01 T10811133  RH  066%=      5-min Rain = 0
KAM2 120333Z 02003KT M08/M13 A3062 RMK A01 T10821134  RH  066%=      5-min Rain = 0
KAM2 120334Z 02003KT M08/M13 A3062 RMK A01 T10841134  RH  067%=      5-min Rain = 0
KAM2 120335Z 02003KT M08/M13 A3061 RMK A01 T10841134  RH  067%=      5-min Rain = 0
KAM2 120336Z 02003KT M09/M13 A3061 RMK A01 T10851134  RH  068%=      5-min Rain = 0
KAM2 120337Z 03003KT M09/M13 A3061 RMK A01 T10851133  RH  068%=      5-min Rain = 0
KAM2 120338Z 02004KT M09/M13 A3061 RMK A01 T10851133  RH  068%=      5-min Rain = 0
KAM2 120339Z 02004KT M09/M13 A3061 RMK A01 T10851133  RH  068%=      5-min Rain = 0
KAM2 120340Z 02005KT M09/M13 A3061 RMK A01 T10861133  RH  069%=      5-min Rain = 0
KAM2 120341Z 01005KT M09/M13 A3061 RMK A01 T10871133  RH  069%=      5-min Rain = 0
KAM2 120342Z 01005KT M09/M13 A3061 RMK A01 T10881134  RH  070%=      5-min Rain = 0
KAM2 120343Z 01005KT M09/M13 A3061 RMK A01 T10891134  RH  070%=      5-min Rain = 0
KAM2 120344Z 02005KT M09/M13 A3061 RMK A01 T10901134  RH  070%=      5-min Rain = 0
KAM2 120345Z 02005KT M09/M13 A3061 RMK A01 T10901134  RH  070%=      5-min Rain = 0
KAM2 120346Z 02005KT M09/M13 A3061 RMK A01 T10901134  RH  070%=      5-min Rain = 0
KAM2 120347Z 02005KT M09/M13 A3061 RMK A01 T10901134  RH  070%=      5-min Rain = 0
KAM2 120348Z 02006KT M09/M13 A3061 RMK A01 T10891134  RH  070%=      5-min Rain = 0
KAM2 120349Z 02005KT M09/M13 A3061 RMK A01 T10891134  RH  070%=      5-min Rain = 0
KAM2 120350Z 02006KT M09/M13 A3061 RMK A01 T10891134  RH  069%=      5-min Rain = 0
KAM2 120351Z 02006KT M09/M14 A3061 RMK A01 T10881135  RH  069%=      5-min Rain = 0
KAM2 120352Z 02006KT M09/M14 A3061 RMK A01 T10881135  RH  069%=      5-min Rain = 0
KAM2 120353Z 02005KT M09/M14 A3061 RMK A01 T10871135  RH  068%=      5-min Rain = 0
KAM2 120354Z 02005KT M09/M14 A3061 RMK A01 T10871135  RH  068%=      5-min Rain = 0
KAM2 120355Z 02006KT M09/M14 A3061 RMK A01 T10871136  RH  068%=      5-min Rain = 0
KAM2 120356Z 03006KT M09/M14 A3061 RMK A01 T10871136  RH  067%=      5-min Rain = 0
KAM2 120357Z 02006KT M09/M14 A3062 RMK A01 T10861136  RH  067%=      5-min Rain = 0
KAM2 120358Z 02005KT M09/M14 A3062 RMK A01 T10861136  RH  067%=      5-min Rain = 0
KAM2 120359Z 02005KT M09/M14 A3062 RMK A01 T10861136  RH  067%=      5-min Rain = 0
KAM2 120400Z 02005KT M09/M14 A3062 RMK A01 T10871137  RH  067%=      5-min Rain = 0
KAM2 120401Z 02005KT M09/M14 A3062 RMK A01 T10861136  RH  067%=      5-min Rain = 0
KAM2 120402Z 02005KT M09/M14 A3062 RMK A01 T10871137  RH  067%=      5-min Rain = 0
KAM2 120403Z 02005KT M09/M14 A3062 RMK A01 T10881137  RH  067%=      5-min Rain = 0
KAM2 120404Z 02005KT M09/M14 A3062 RMK A01 T10881137  RH  068%=      5-min Rain = 0
KAM2 120405Z 02005KT M09/M14 A3062 RMK A01 T10901137  RH  068%=      5-min Rain = 0
KAM2 120406Z 02005KT M09/M14 A3062 RMK A01 T10911138  RH  069%=      5-min Rain = 0
KAM2 120407Z 02005KT M09/M14 A3062 RMK A01 T10921137  RH  069%=      5-min Rain = 0
KAM2 120408Z 01005KT M09/M14 A3062 RMK A01 T10921137  RH  070%=      5-min Rain = 0
KAM2 120409Z 02005KT M09/M14 A3062 RMK A01 T10931137  RH  070%=      5-min Rain = 0
KAM2 120410Z 02005KT M09/M14 A3062 RMK A01 T10931137  RH  070%=      5-min Rain = 0
KAM2 120411Z 02005KT M09/M14 A3062 RMK A01 T10931137  RH  070%=      5-min Rain = 0
KAM2 120412Z 02005KT M09/M14 A3062 RMK A01 T10931137  RH  070%=      5-min Rain = 0
KAM2 120413Z 02005KT M09/M14 A3062 RMK A01 T10931137  RH  070%=      5-min Rain = 0
KAM2 120414Z 02005KT M09/M14 A3062 RMK A01 T10931137  RH  070%=      5-min Rain = 0
KAM2 120415Z 02005KT M09/M14 A3062 RMK A01 T10931137  RH  070%=      5-min Rain = 0
KAM2 120416Z 01004KT M09/M14 A3062 RMK A01 T10931138  RH  070%=      5-min Rain = 0
KAM2 120417Z 02004KT M09/M14 A3062 RMK A01 T10931138  RH  070%=      5-min Rain = 0
KAM2 120418Z 01005KT M09/M14 A3062 RMK A01 T10931138  RH  070%=      5-min Rain = 0
KAM2 120419Z 02004KT M09/M14 A3062 RMK A01 T10931138  RH  070%=      5-min Rain = 0
KAM2 120420Z 02004KT M09/M14 A3062 RMK A01 T10931138  RH  070%=      5-min Rain = 0
KAM2 120421Z 03004KT M09/M14 A3062 RMK A01 T10931138  RH  070%=      5-min Rain = 0
KAM2 120422Z 02004KT M09/M14 A3062 RMK A01 T10931138  RH  070%=      5-min Rain = 0
KAM2 120423Z 03004KT M09/M14 A3062 RMK A01 T10931137  RH  070%=      5-min Rain = 0
KAM2 120424Z 02004KT M09/M14 A3062 RMK A01 T10931137  RH  071%=      5-min Rain = 0
KAM2 120425Z 02004KT M09/M14 A3062 RMK A01 T10941136  RH  072%=      5-min Rain = 0
KAM2 120426Z 02005KT M10/M14 A3062 RMK A01 T10951135  RH  072%=      5-min Rain = 0
KAM2 120427Z 02005KT M10/M14 A3062 RMK A01 T10951136  RH  072%=      5-min Rain = 0
KAM2 120428Z 02005KT M09/M14 A3062 RMK A01 T10941137  RH  071%=      5-min Rain = 0
KAM2 120429Z 01005KT M09/M14 A3062 RMK A01 T10931138  RH  070%=      5-min Rain = 0
KAM2 120430Z 01005KT M09/M14 A3062 RMK A01 T10931139  RH  069%=      5-min Rain = 0
KAM2 120431Z 02005KT M09/M14 A3062 RMK A01 T10931139  RH  069%=      5-min Rain = 0
KAM2 120432Z 02005KT M09/M14 A3062 RMK A01 T10921140  RH  069%=      5-min Rain = 0
KAM2 120433Z 01005KT M09/M14 A3062 RMK A01 T10921139  RH  069%=      5-min Rain = 0
KAM2 120434Z 02006KT M09/M14 A3062 RMK A01 T10931140  RH  069%=      5-min Rain = 0
KAM2 120435Z 02005KT M09/M14 A3062 RMK A01 T10941140  RH  069%=      5-min Rain = 0
KAM2 120436Z 02006KT M09/M14 A3062 RMK A01 T10941139  RH  070%=      5-min Rain = 0
KAM2 120437Z 02006KT M09/M14 A3062 RMK A01 T10941139  RH  070%=      5-min Rain = 0
KAM2 120438Z 02006KT M09/M14 A3062 RMK A01 T10941139  RH  070%=      5-min Rain = 0
KAM2 120439Z 02006KT M09/M14 A3062 RMK A01 T10941139  RH  069%=      5-min Rain = 0
KAM2 120440Z 03006KT M09/M14 A3062 RMK A01 T10931139  RH  070%=      5-min Rain = 0
KAM2 120441Z 03006KT M09/M14 A3062 RMK A01 T10931138  RH  070%=      5-min Rain = 0
KAM2 120442Z 03006KT M09/M14 A3062 RMK A01 T10931138  RH  070%=      5-min Rain = 0
KAM2 120443Z 03006KT M09/M14 A3062 RMK A01 T10941138  RH  070%=      5-min Rain = 0
KAM2 120444Z 03006KT M09/M14 A3062 RMK A01 T10941138  RH  070%=      5-min Rain = 0
KAM2 120445Z 03006KT M09/M14 A3062 RMK A01 T10941139  RH  070%=      5-min Rain = 0
KAM2 120446Z 02006KT M10/M14 A3062 RMK A01 T10951139  RH  071%=      5-min Rain = 0
KAM2 120447Z 02007KT M10/M14 A3062 RMK A01 T10951138  RH  071%=      5-min Rain = 0
KAM2 120448Z 02007KT M10/M14 A3062 RMK A01 T10951138  RH  071%=      5-min Rain = 0
KAM2 120449Z 02007KT M10/M14 A3062 RMK A01 T10961138  RH  072%=      5-min Rain = 0
KAM2 120450Z 02007KT M10/M14 A3061 RMK A01 T10961138  RH  072%=      5-min Rain = 0
KAM2 120451Z 02008KT M10/M14 A3061 RMK A01 T10961137  RH  072%=      5-min Rain = 0
KAM2 120452Z 02007KT M10/M14 A3061 RMK A01 T10951137  RH  071%=      5-min Rain = 0
KAM2 120453Z 02007KT M09/M14 A3061 RMK A01 T10941137  RH  071%=      5-min Rain = 0
KAM2 120454Z 02007KT M09/M14 A3061 RMK A01 T10931137  RH  070%=      5-min Rain = 0
KAM2 120455Z 02007KT M09/M14 A3061 RMK A01 T10921137  RH  070%=      5-min Rain = 0
KAM2 120456Z 02006KT M09/M14 A3061 RMK A01 T10921138  RH  070%=      5-min Rain = 0
KAM2 120457Z 01007KT M09/M14 A3061 RMK A01 T10931138  RH  069%=      5-min Rain = 0
KAM2 120458Z 01007KT M09/M14 A3061 RMK A01 T10931138  RH  069%=      5-min Rain = 0
KAM2 120459Z 01007KT M09/M14 A3061 RMK A01 T10931138  RH  070%=      5-min Rain = 0
KAM2 120500Z 01007KT M09/M14 A3061 RMK A01 T10941138  RH  070%=      5-min Rain = 0
KAM2 120501Z 01008KT M09/M14 A3061 RMK A01 T10941138  RH  070%=      5-min Rain = 0
KAM2 120502Z 01008KT M09/M14 A3061 RMK A01 T10941138  RH  071%=      5-min Rain = 0
KAM2 120503Z 01008KT M10/M14 A3061 RMK A01 T10951138  RH  071%=      5-min Rain = 0
KAM2 120504Z 01009KT M10/M14 A3061 RMK A01 T10951138  RH  071%=      5-min Rain = 0
KAM2 120505Z 02009KT M10/M14 A3061 RMK A01 T10951138  RH  071%=      5-min Rain = 0
KAM2 120506Z 01008KT M09/M14 A3061 RMK A01 T10941138  RH  070%=      5-min Rain = 0
KAM2 120507Z 02008KT M09/M14 A3061 RMK A01 T10931138  RH  070%=      5-min Rain = 0
KAM2 120508Z 02009KT M09/M14 A3061 RMK A01 T10921138  RH  069%=      5-min Rain = 0
KAM2 120509Z 02007KT M09/M14 A3061 RMK A01 T10911138  RH  069%=      5-min Rain = 0
KAM2 120510Z 02007KT M09/M14 A3061 RMK A01 T10901138  RH  068%=      5-min Rain = 0
KAM2 120511Z 02007KT M09/M14 A3061 RMK A01 T10911139  RH  068%=      5-min Rain = 0
KAM2 120512Z 02006KT M09/M14 A3061 RMK A01 T10901139  RH  068%=      5-min Rain = 0
KAM2 120513Z 02006KT M09/M14 A3061 RMK A01 T10891139  RH  067%=      5-min Rain = 0
KAM2 120514Z 03005KT M09/M14 A3061 RMK A01 T10891139  RH  067%=      5-min Rain = 0
KAM2 120515Z 01005KT M09/M14 A3062 RMK A01 T10891139  RH  067%=      5-min Rain = 0
KAM2 120516Z 01006KT M09/M14 A3062 RMK A01 T10891139  RH  067%=      5-min Rain = 0
KAM2 120517Z 01006KT M09/M14 A3062 RMK A01 T10891140  RH  067%=      5-min Rain = 0
KAM2 120518Z 02005KT M09/M14 A3062 RMK A01 T10891140  RH  066%=      5-min Rain = 0
KAM2 120519Z 02005KT M09/M14 A3062 RMK A01 T10891141  RH  066%=      5-min Rain = 0
KAM2 120520Z 01005KT M09/M14 A3061 RMK A01 T10891141  RH  066%=      5-min Rain = 0
KAM2 120521Z 01004KT M09/M14 A3061 RMK A01 T10891141  RH  066%=      5-min Rain = 0
KAM2 120522Z 02005KT M09/M14 A3061 RMK A01 T10901141  RH  066%=      5-min Rain = 0
KAM2 120523Z 01005KT M09/M14 A3061 RMK A01 T10901141  RH  066%=      5-min Rain = 0
KAM2 120524Z 01006KT M09/M14 A3061 RMK A01 T10901141  RH  066%=      5-min Rain = 0
KAM2 120525Z 01006KT M09/M14 A3061 RMK A01 T10901141  RH  066%=      5-min Rain = 0
KAM2 120526Z 01006KT M09/M14 A3061 RMK A01 T10901141  RH  066%=      5-min Rain = 0
KAM2 120527Z 01006KT M09/M14 A3061 RMK A01 T10901141  RH  067%=      5-min Rain = 0
KAM2 120528Z 00006KT M09/M14 A3061 RMK A01 T10911141  RH  067%=      5-min Rain = 0
KAM2 120529Z 01006KT M09/M14 A3061 RMK A01 T10911142  RH  067%=      5-min Rain = 0
KAM2 120530Z 01007KT M09/M14 A3061 RMK A01 T10911141  RH  067%=      5-min Rain = 0
KAM2 120531Z 01006KT M09/M14 A3061 RMK A01 T10911141  RH  067%=      5-min Rain = 0
KAM2 120532Z 02005KT M09/M14 A3061 RMK A01 T10911142  RH  067%=      5-min Rain = 0
KAM2 120533Z 02005KT M09/M14 A3061 RMK A01 T10911141  RH  067%=      5-min Rain = 0
KAM2 120534Z 02004KT M09/M14 A3061 RMK A01 T10921141  RH  067%=      5-min Rain = 0
KAM2 120535Z 03004KT M09/M14 A3061 RMK A01 T10921141  RH  068%=      5-min Rain = 0
KAM2 120536Z 03004KT M09/M14 A3062 RMK A01 T10931141  RH  068%=      5-min Rain = 0
KAM2 120537Z 02004KT M09/M14 A3062 RMK A01 T10931141  RH  068%=      5-min Rain = 0
KAM2 120538Z 03004KT M09/M14 A3062 RMK A01 T10931141  RH  068%=      5-min Rain = 0
KAM2 120539Z 02004KT M09/M14 A3062 RMK A01 T10931141  RH  068%=      5-min Rain = 0
KAM2 120540Z 02003KT M09/M14 A3062 RMK A01 T10941141  RH  068%=      5-min Rain = 0
KAM2 120541Z 02004KT M09/M14 A3062 RMK A01 T10941141  RH  068%=      5-min Rain = 0
KAM2 120542Z 01004KT M09/M14 A3062 RMK A01 T10941141  RH  069%=      5-min Rain = 0
KAM2 120543Z 01004KT M10/M14 A3062 RMK A01 T10951142  RH  069%=      5-min Rain = 0
KAM2 120544Z 01004KT M10/M14 A3062 RMK A01 T10961142  RH  069%=      5-min Rain = 0
KAM2 120545Z 01004KT M10/M14 A3062 RMK A01 T10961142  RH  069%=      5-min Rain = 0
KAM2 120546Z 01004KT M10/M14 A3062 RMK A01 T10971142  RH  070%=      5-min Rain = 0
KAM2 120547Z 01004KT M10/M14 A3062 RMK A01 T10981142  RH  070%=      5-min Rain = 0
KAM2 120548Z 01004KT M10/M14 A3062 RMK A01 T10981142  RH  071%=      5-min Rain = 0
KAM2 120549Z 02004KT M10/M14 A3062 RMK A01 T10991141  RH  071%=      5-min Rain = 0
KAM2 120550Z 02004KT M10/M14 A3062 RMK A01 T10991141  RH  071%=      5-min Rain = 0
KAM2 120551Z 02004KT M10/M14 A3062 RMK A01 T11001141  RH  072%=      5-min Rain = 0
KAM2 120552Z 01004KT M10/M14 A3062 RMK A01 T11001141  RH  072%=      5-min Rain = 0
KAM2 120553Z 01004KT M10/M14 A3062 RMK A01 T11011141  RH  072%=      5-min Rain = 0
KAM2 120554Z 01004KT M10/M14 A3062 RMK A01 T11021141  RH  073%=      5-min Rain = 0
KAM2 120555Z 01004KT M10/M14 A3062 RMK A01 T11021141  RH  073%=      5-min Rain = 0
KAM2 120556Z 01004KT M10/M14 A3062 RMK A01 T11031141  RH  074%=      5-min Rain = 0
KAM2 120557Z 00004KT M10/M14 A3062 RMK A01 T11041141  RH  074%=      5-min Rain = 0
KAM2 120558Z 36004KT M10/M14 A3062 RMK A01 T11041141  RH  074%=      5-min Rain = 0
KAM2 120559Z 35004KT M11/M14 A3062 RMK A01 T11051141  RH  075%=      5-min Rain = 0

Page generated in 0.081 seconds.